<?xml version="1.0" encoding="UTF-8" standalone="no" ?>
<gpx xmlns="http://www.topografix.com/GPX/1/1" xmlns:xsi="http://www.w3.org/2001/XMLSchema-instance" xsi:schemaLocation="http://www.topografix.com/GPX/1/1 http://www.topografix.com/GPX/1/1/gpx.xsd" version="1.1" creator="VisuGPX - https://www.visugpx.com">
  <metadata>
    <name>Fontaine sur Somme_12km</name>
    <desc><![CDATA[Walkmeter Marche 28 juil. 2013 09:08:08]]></desc>
  </metadata>
  <trk>
    <name><![CDATA[Fontaine Sur Somme_12km]]></name>
    <trkseg>
      <trkpt lat="50.02908" lon="1.93756">
        <ele>18</ele>
        <time>2013-07-28T07:08:08Z</time>
      </trkpt>
      <trkpt lat="50.02908" lon="1.93758">
        <ele>18.1</ele>
        <time>2013-07-28T07:08:09Z</time>
      </trkpt>
      <trkpt lat="50.02914" lon="1.93778">
        <ele>19.5</ele>
        <time>2013-07-28T07:08:21Z</time>
      </trkpt>
      <trkpt lat="50.02932" lon="1.9381">
        <ele>17.2</ele>
        <time>2013-07-28T07:08:36Z</time>
      </trkpt>
      <trkpt lat="50.02932" lon="1.9381">
        <ele>17.2</ele>
        <time>2013-07-28T07:09:09Z</time>
      </trkpt>
      <trkpt lat="50.02937" lon="1.93831">
        <ele>13.9</ele>
        <time>2013-07-28T07:09:12Z</time>
      </trkpt>
      <trkpt lat="50.02931" lon="1.9385">
        <ele>13.2</ele>
        <time>2013-07-28T07:09:19Z</time>
      </trkpt>
      <trkpt lat="50.02923" lon="1.9387">
        <ele>12</ele>
        <time>2013-07-28T07:09:31Z</time>
      </trkpt>
      <trkpt lat="50.02914" lon="1.93886">
        <ele>12.3</ele>
        <time>2013-07-28T07:09:41Z</time>
      </trkpt>
      <trkpt lat="50.02906" lon="1.93904">
        <ele>12.7</ele>
        <time>2013-07-28T07:09:50Z</time>
      </trkpt>
      <trkpt lat="50.02899" lon="1.93922">
        <ele>13.7</ele>
        <time>2013-07-28T07:10:02Z</time>
      </trkpt>
      <trkpt lat="50.02887" lon="1.93932">
        <ele>15.2</ele>
        <time>2013-07-28T07:10:13Z</time>
      </trkpt>
      <trkpt lat="50.02873" lon="1.93924">
        <ele>12.6</ele>
        <time>2013-07-28T07:10:29Z</time>
      </trkpt>
      <trkpt lat="50.0286" lon="1.93918">
        <ele>11.4</ele>
        <time>2013-07-28T07:10:40Z</time>
      </trkpt>
      <trkpt lat="50.02846" lon="1.93912">
        <ele>10.2</ele>
        <time>2013-07-28T07:10:51Z</time>
      </trkpt>
      <trkpt lat="50.02834" lon="1.939">
        <ele>11.1</ele>
        <time>2013-07-28T07:11:04Z</time>
      </trkpt>
      <trkpt lat="50.02831" lon="1.93879">
        <ele>12.3</ele>
        <time>2013-07-28T07:11:13Z</time>
      </trkpt>
      <trkpt lat="50.02832" lon="1.93857">
        <ele>13.5</ele>
        <time>2013-07-28T07:11:24Z</time>
      </trkpt>
      <trkpt lat="50.02826" lon="1.93838">
        <ele>15</ele>
        <time>2013-07-28T07:11:37Z</time>
      </trkpt>
      <trkpt lat="50.02821" lon="1.93817">
        <ele>16</ele>
        <time>2013-07-28T07:11:46Z</time>
      </trkpt>
      <trkpt lat="50.0281" lon="1.93805">
        <ele>13.3</ele>
        <time>2013-07-28T07:11:57Z</time>
      </trkpt>
      <trkpt lat="50.02798" lon="1.93792">
        <ele>12.4</ele>
        <time>2013-07-28T07:12:12Z</time>
      </trkpt>
      <trkpt lat="50.02784" lon="1.93787">
        <ele>12.9</ele>
        <time>2013-07-28T07:12:21Z</time>
      </trkpt>
      <trkpt lat="50.02784" lon="1.93777">
        <ele>13.1</ele>
        <time>2013-07-28T07:12:27Z</time>
      </trkpt>
      <trkpt lat="50.0277" lon="1.93775">
        <ele>13.7</ele>
        <time>2013-07-28T07:12:40Z</time>
      </trkpt>
      <trkpt lat="50.02758" lon="1.93764">
        <ele>14.1</ele>
        <time>2013-07-28T07:12:49Z</time>
      </trkpt>
      <trkpt lat="50.02744" lon="1.93753">
        <ele>14.5</ele>
        <time>2013-07-28T07:12:58Z</time>
      </trkpt>
      <trkpt lat="50.02733" lon="1.9374">
        <ele>15</ele>
        <time>2013-07-28T07:13:08Z</time>
      </trkpt>
      <trkpt lat="50.02723" lon="1.93724">
        <ele>20.1</ele>
        <time>2013-07-28T07:13:20Z</time>
      </trkpt>
      <trkpt lat="50.02713" lon="1.93709">
        <ele>21.6</ele>
        <time>2013-07-28T07:13:33Z</time>
      </trkpt>
      <trkpt lat="50.02705" lon="1.93691">
        <ele>22.7</ele>
        <time>2013-07-28T07:13:42Z</time>
      </trkpt>
      <trkpt lat="50.027" lon="1.93669">
        <ele>20.5</ele>
        <time>2013-07-28T07:13:52Z</time>
      </trkpt>
      <trkpt lat="50.02696" lon="1.93646">
        <ele>17.7</ele>
        <time>2013-07-28T07:14:00Z</time>
      </trkpt>
      <trkpt lat="50.02688" lon="1.93627">
        <ele>19.2</ele>
        <time>2013-07-28T07:14:10Z</time>
      </trkpt>
      <trkpt lat="50.02679" lon="1.9361">
        <ele>17.9</ele>
        <time>2013-07-28T07:14:22Z</time>
      </trkpt>
      <trkpt lat="50.02673" lon="1.93589">
        <ele>20.6</ele>
        <time>2013-07-28T07:14:34Z</time>
      </trkpt>
      <trkpt lat="50.02682" lon="1.93573">
        <ele>26.6</ele>
        <time>2013-07-28T07:14:47Z</time>
      </trkpt>
      <trkpt lat="50.02674" lon="1.93562">
        <ele>28.1</ele>
        <time>2013-07-28T07:14:57Z</time>
      </trkpt>
      <trkpt lat="50.02677" lon="1.93539">
        <ele>29.4</ele>
        <time>2013-07-28T07:15:07Z</time>
      </trkpt>
      <trkpt lat="50.02679" lon="1.93519">
        <ele>31.4</ele>
        <time>2013-07-28T07:15:18Z</time>
      </trkpt>
      <trkpt lat="50.02672" lon="1.93499">
        <ele>33.7</ele>
        <time>2013-07-28T07:15:29Z</time>
      </trkpt>
      <trkpt lat="50.02668" lon="1.93479">
        <ele>37</ele>
        <time>2013-07-28T07:15:39Z</time>
      </trkpt>
      <trkpt lat="50.02664" lon="1.93457">
        <ele>37</ele>
        <time>2013-07-28T07:15:49Z</time>
      </trkpt>
      <trkpt lat="50.02657" lon="1.93437">
        <ele>37</ele>
        <time>2013-07-28T07:15:59Z</time>
      </trkpt>
      <trkpt lat="50.02658" lon="1.93415">
        <ele>34.9</ele>
        <time>2013-07-28T07:16:14Z</time>
      </trkpt>
      <trkpt lat="50.02657" lon="1.93394">
        <ele>33.3</ele>
        <time>2013-07-28T07:16:27Z</time>
      </trkpt>
      <trkpt lat="50.02654" lon="1.93372">
        <ele>37.2</ele>
        <time>2013-07-28T07:16:36Z</time>
      </trkpt>
      <trkpt lat="50.02652" lon="1.9335">
        <ele>41.2</ele>
        <time>2013-07-28T07:16:49Z</time>
      </trkpt>
      <trkpt lat="50.02647" lon="1.9333">
        <ele>43.1</ele>
        <time>2013-07-28T07:16:58Z</time>
      </trkpt>
      <trkpt lat="50.02639" lon="1.93311">
        <ele>44.8</ele>
        <time>2013-07-28T07:17:08Z</time>
      </trkpt>
      <trkpt lat="50.02632" lon="1.93292">
        <ele>46.1</ele>
        <time>2013-07-28T07:17:19Z</time>
      </trkpt>
      <trkpt lat="50.0263" lon="1.93271">
        <ele>47.2</ele>
        <time>2013-07-28T07:17:29Z</time>
      </trkpt>
      <trkpt lat="50.02622" lon="1.93252">
        <ele>46.7</ele>
        <time>2013-07-28T07:17:40Z</time>
      </trkpt>
      <trkpt lat="50.02616" lon="1.93231">
        <ele>42.2</ele>
        <time>2013-07-28T07:17:55Z</time>
      </trkpt>
      <trkpt lat="50.02608" lon="1.93213">
        <ele>44.8</ele>
        <time>2013-07-28T07:18:09Z</time>
      </trkpt>
      <trkpt lat="50.02601" lon="1.93194">
        <ele>47.1</ele>
        <time>2013-07-28T07:18:21Z</time>
      </trkpt>
      <trkpt lat="50.02594" lon="1.93175">
        <ele>49.1</ele>
        <time>2013-07-28T07:18:34Z</time>
      </trkpt>
      <trkpt lat="50.02587" lon="1.93157">
        <ele>50.7</ele>
        <time>2013-07-28T07:18:45Z</time>
      </trkpt>
      <trkpt lat="50.02576" lon="1.93141">
        <ele>51.7</ele>
        <time>2013-07-28T07:18:57Z</time>
      </trkpt>
      <trkpt lat="50.02564" lon="1.93129">
        <ele>51.1</ele>
        <time>2013-07-28T07:19:07Z</time>
      </trkpt>
      <trkpt lat="50.02554" lon="1.93114">
        <ele>52</ele>
        <time>2013-07-28T07:19:17Z</time>
      </trkpt>
      <trkpt lat="50.02552" lon="1.93092">
        <ele>54</ele>
        <time>2013-07-28T07:19:32Z</time>
      </trkpt>
      <trkpt lat="50.0254" lon="1.93079">
        <ele>52.2</ele>
        <time>2013-07-28T07:19:38Z</time>
      </trkpt>
      <trkpt lat="50.0253" lon="1.93063">
        <ele>50.4</ele>
        <time>2013-07-28T07:19:47Z</time>
      </trkpt>
      <trkpt lat="50.0252" lon="1.93047">
        <ele>49.3</ele>
        <time>2013-07-28T07:19:55Z</time>
      </trkpt>
      <trkpt lat="50.02509" lon="1.93032">
        <ele>48.9</ele>
        <time>2013-07-28T07:20:09Z</time>
      </trkpt>
      <trkpt lat="50.025" lon="1.93012">
        <ele>51.5</ele>
        <time>2013-07-28T07:20:24Z</time>
      </trkpt>
      <trkpt lat="50.02489" lon="1.92998">
        <ele>48.8</ele>
        <time>2013-07-28T07:20:35Z</time>
      </trkpt>
      <trkpt lat="50.02478" lon="1.92984">
        <ele>47.1</ele>
        <time>2013-07-28T07:20:43Z</time>
      </trkpt>
      <trkpt lat="50.02472" lon="1.92974">
        <ele>45.3</ele>
        <time>2013-07-28T07:20:51Z</time>
      </trkpt>
      <trkpt lat="50.02461" lon="1.92959">
        <ele>45.8</ele>
        <time>2013-07-28T07:21:01Z</time>
      </trkpt>
      <trkpt lat="50.02451" lon="1.92944">
        <ele>49.4</ele>
        <time>2013-07-28T07:21:13Z</time>
      </trkpt>
      <trkpt lat="50.02442" lon="1.92927">
        <ele>52.2</ele>
        <time>2013-07-28T07:21:21Z</time>
      </trkpt>
      <trkpt lat="50.02432" lon="1.92912">
        <ele>57.2</ele>
        <time>2013-07-28T07:21:33Z</time>
      </trkpt>
      <trkpt lat="50.0242" lon="1.92899">
        <ele>56.5</ele>
        <time>2013-07-28T07:21:42Z</time>
      </trkpt>
      <trkpt lat="50.0241" lon="1.92883">
        <ele>54.7</ele>
        <time>2013-07-28T07:21:52Z</time>
      </trkpt>
      <trkpt lat="50.02402" lon="1.92865">
        <ele>54.2</ele>
        <time>2013-07-28T07:22:04Z</time>
      </trkpt>
      <trkpt lat="50.02395" lon="1.92846">
        <ele>55.8</ele>
        <time>2013-07-28T07:22:15Z</time>
      </trkpt>
      <trkpt lat="50.02386" lon="1.92829">
        <ele>58.5</ele>
        <time>2013-07-28T07:22:27Z</time>
      </trkpt>
      <trkpt lat="50.02378" lon="1.92811">
        <ele>60.3</ele>
        <time>2013-07-28T07:22:37Z</time>
      </trkpt>
      <trkpt lat="50.02368" lon="1.92796">
        <ele>63</ele>
        <time>2013-07-28T07:22:47Z</time>
      </trkpt>
      <trkpt lat="50.02362" lon="1.92776">
        <ele>62.6</ele>
        <time>2013-07-28T07:22:59Z</time>
      </trkpt>
      <trkpt lat="50.02356" lon="1.92755">
        <ele>62.2</ele>
        <time>2013-07-28T07:23:13Z</time>
      </trkpt>
      <trkpt lat="50.02349" lon="1.92735">
        <ele>62.7</ele>
        <time>2013-07-28T07:23:25Z</time>
      </trkpt>
      <trkpt lat="50.02336" lon="1.92723">
        <ele>63.2</ele>
        <time>2013-07-28T07:23:33Z</time>
      </trkpt>
      <trkpt lat="50.02326" lon="1.92707">
        <ele>62.5</ele>
        <time>2013-07-28T07:23:41Z</time>
      </trkpt>
      <trkpt lat="50.02314" lon="1.92694">
        <ele>63.5</ele>
        <time>2013-07-28T07:23:50Z</time>
      </trkpt>
      <trkpt lat="50.02301" lon="1.92684">
        <ele>64.5</ele>
        <time>2013-07-28T07:24:00Z</time>
      </trkpt>
      <trkpt lat="50.02289" lon="1.92671">
        <ele>71.4</ele>
        <time>2013-07-28T07:24:23Z</time>
      </trkpt>
      <trkpt lat="50.02277" lon="1.9266">
        <ele>70.3</ele>
        <time>2013-07-28T07:24:31Z</time>
      </trkpt>
      <trkpt lat="50.02264" lon="1.9265">
        <ele>70.9</ele>
        <time>2013-07-28T07:24:37Z</time>
      </trkpt>
      <trkpt lat="50.02241" lon="1.9263">
        <ele>69</ele>
        <time>2013-07-28T07:24:51Z</time>
      </trkpt>
      <trkpt lat="50.02241" lon="1.9263">
        <ele>69</ele>
        <time>2013-07-28T07:25:25Z</time>
      </trkpt>
      <trkpt lat="50.02231" lon="1.92619">
        <ele>67</ele>
        <time>2013-07-28T07:25:25Z</time>
      </trkpt>
      <trkpt lat="50.02218" lon="1.9261">
        <ele>63.8</ele>
        <time>2013-07-28T07:25:29Z</time>
      </trkpt>
      <trkpt lat="50.02204" lon="1.926">
        <ele>62.2</ele>
        <time>2013-07-28T07:25:35Z</time>
      </trkpt>
      <trkpt lat="50.02194" lon="1.92592">
        <ele>62.5</ele>
        <time>2013-07-28T07:25:40Z</time>
      </trkpt>
      <trkpt lat="50.02186" lon="1.92575">
        <ele>63.1</ele>
        <time>2013-07-28T07:25:45Z</time>
      </trkpt>
      <trkpt lat="50.0218" lon="1.92555">
        <ele>65</ele>
        <time>2013-07-28T07:25:59Z</time>
      </trkpt>
      <trkpt lat="50.02174" lon="1.92536">
        <ele>66</ele>
        <time>2013-07-28T07:26:04Z</time>
      </trkpt>
      <trkpt lat="50.02166" lon="1.9252">
        <ele>69</ele>
        <time>2013-07-28T07:26:16Z</time>
      </trkpt>
      <trkpt lat="50.02154" lon="1.92496">
        <ele>69.5</ele>
        <time>2013-07-28T07:26:29Z</time>
      </trkpt>
      <trkpt lat="50.02148" lon="1.92476">
        <ele>70</ele>
        <time>2013-07-28T07:26:40Z</time>
      </trkpt>
      <trkpt lat="50.02138" lon="1.92459">
        <ele>65.1</ele>
        <time>2013-07-28T07:26:53Z</time>
      </trkpt>
      <trkpt lat="50.02132" lon="1.92438">
        <ele>67.6</ele>
        <time>2013-07-28T07:27:11Z</time>
      </trkpt>
      <trkpt lat="50.02126" lon="1.92418">
        <ele>68.2</ele>
        <time>2013-07-28T07:27:20Z</time>
      </trkpt>
      <trkpt lat="50.02121" lon="1.92398">
        <ele>68.8</ele>
        <time>2013-07-28T07:27:38Z</time>
      </trkpt>
      <trkpt lat="50.02114" lon="1.92378">
        <ele>69.1</ele>
        <time>2013-07-28T07:27:48Z</time>
      </trkpt>
      <trkpt lat="50.02107" lon="1.92356">
        <ele>69.6</ele>
        <time>2013-07-28T07:28:02Z</time>
      </trkpt>
      <trkpt lat="50.02103" lon="1.92336">
        <ele>69.8</ele>
        <time>2013-07-28T07:28:10Z</time>
      </trkpt>
      <trkpt lat="50.02096" lon="1.92314">
        <ele>70.2</ele>
        <time>2013-07-28T07:28:20Z</time>
      </trkpt>
      <trkpt lat="50.0209" lon="1.92295">
        <ele>70.3</ele>
        <time>2013-07-28T07:28:25Z</time>
      </trkpt>
      <trkpt lat="50.02084" lon="1.92269">
        <ele>70.7</ele>
        <time>2013-07-28T07:28:35Z</time>
      </trkpt>
      <trkpt lat="50.02077" lon="1.9225">
        <ele>70.7</ele>
        <time>2013-07-28T07:28:49Z</time>
      </trkpt>
      <trkpt lat="50.02072" lon="1.92231">
        <ele>69.6</ele>
        <time>2013-07-28T07:28:58Z</time>
      </trkpt>
      <trkpt lat="50.02069" lon="1.92209">
        <ele>67.7</ele>
        <time>2013-07-28T07:29:16Z</time>
      </trkpt>
      <trkpt lat="50.02066" lon="1.92187">
        <ele>68.9</ele>
        <time>2013-07-28T07:29:29Z</time>
      </trkpt>
      <trkpt lat="50.02061" lon="1.92167">
        <ele>71.3</ele>
        <time>2013-07-28T07:29:40Z</time>
      </trkpt>
      <trkpt lat="50.02055" lon="1.92147">
        <ele>72.1</ele>
        <time>2013-07-28T07:29:51Z</time>
      </trkpt>
      <trkpt lat="50.02048" lon="1.92127">
        <ele>73.1</ele>
        <time>2013-07-28T07:30:01Z</time>
      </trkpt>
      <trkpt lat="50.02041" lon="1.92108">
        <ele>73.9</ele>
        <time>2013-07-28T07:30:11Z</time>
      </trkpt>
      <trkpt lat="50.02034" lon="1.9209">
        <ele>73</ele>
        <time>2013-07-28T07:30:21Z</time>
      </trkpt>
      <trkpt lat="50.02027" lon="1.92071">
        <ele>71.6</ele>
        <time>2013-07-28T07:30:33Z</time>
      </trkpt>
      <trkpt lat="50.02021" lon="1.92052">
        <ele>70.2</ele>
        <time>2013-07-28T07:30:44Z</time>
      </trkpt>
      <trkpt lat="50.02013" lon="1.92034">
        <ele>71.7</ele>
        <time>2013-07-28T07:30:56Z</time>
      </trkpt>
      <trkpt lat="50.02004" lon="1.92017">
        <ele>74</ele>
        <time>2013-07-28T07:31:09Z</time>
      </trkpt>
      <trkpt lat="50.02" lon="1.91994">
        <ele>72.5</ele>
        <time>2013-07-28T07:31:17Z</time>
      </trkpt>
      <trkpt lat="50.01991" lon="1.91975">
        <ele>70.7</ele>
        <time>2013-07-28T07:31:28Z</time>
      </trkpt>
      <trkpt lat="50.01984" lon="1.91957">
        <ele>73.3</ele>
        <time>2013-07-28T07:31:41Z</time>
      </trkpt>
      <trkpt lat="50.01977" lon="1.91938">
        <ele>74.1</ele>
        <time>2013-07-28T07:31:54Z</time>
      </trkpt>
      <trkpt lat="50.01972" lon="1.91916">
        <ele>74.7</ele>
        <time>2013-07-28T07:32:04Z</time>
      </trkpt>
      <trkpt lat="50.01969" lon="1.91895">
        <ele>75.7</ele>
        <time>2013-07-28T07:32:19Z</time>
      </trkpt>
      <trkpt lat="50.01966" lon="1.91874">
        <ele>76.1</ele>
        <time>2013-07-28T07:32:26Z</time>
      </trkpt>
      <trkpt lat="50.01962" lon="1.91853">
        <ele>76.4</ele>
        <time>2013-07-28T07:32:37Z</time>
      </trkpt>
      <trkpt lat="50.01958" lon="1.91832">
        <ele>76.8</ele>
        <time>2013-07-28T07:32:51Z</time>
      </trkpt>
      <trkpt lat="50.01953" lon="1.91811">
        <ele>77.2</ele>
        <time>2013-07-28T07:33:01Z</time>
      </trkpt>
      <trkpt lat="50.0195" lon="1.91789">
        <ele>77.6</ele>
        <time>2013-07-28T07:33:15Z</time>
      </trkpt>
      <trkpt lat="50.01952" lon="1.91768">
        <ele>78</ele>
        <time>2013-07-28T07:33:26Z</time>
      </trkpt>
      <trkpt lat="50.01948" lon="1.91746">
        <ele>78.3</ele>
        <time>2013-07-28T07:33:35Z</time>
      </trkpt>
      <trkpt lat="50.01942" lon="1.91727">
        <ele>78.6</ele>
        <time>2013-07-28T07:33:48Z</time>
      </trkpt>
      <trkpt lat="50.01936" lon="1.91708">
        <ele>79</ele>
        <time>2013-07-28T07:33:57Z</time>
      </trkpt>
      <trkpt lat="50.01927" lon="1.9169">
        <ele>77.5</ele>
        <time>2013-07-28T07:34:15Z</time>
      </trkpt>
      <trkpt lat="50.01923" lon="1.91669">
        <ele>76.5</ele>
        <time>2013-07-28T07:34:26Z</time>
      </trkpt>
      <trkpt lat="50.01924" lon="1.91647">
        <ele>75.5</ele>
        <time>2013-07-28T07:34:38Z</time>
      </trkpt>
      <trkpt lat="50.01921" lon="1.91625">
        <ele>74.5</ele>
        <time>2013-07-28T07:34:48Z</time>
      </trkpt>
      <trkpt lat="50.01916" lon="1.91604">
        <ele>73.5</ele>
        <time>2013-07-28T07:34:59Z</time>
      </trkpt>
      <trkpt lat="50.01909" lon="1.91584">
        <ele>72.6</ele>
        <time>2013-07-28T07:35:09Z</time>
      </trkpt>
      <trkpt lat="50.01899" lon="1.9157">
        <ele>67.1</ele>
        <time>2013-07-28T07:35:20Z</time>
      </trkpt>
      <trkpt lat="50.01888" lon="1.91556">
        <ele>66.8</ele>
        <time>2013-07-28T07:35:34Z</time>
      </trkpt>
      <trkpt lat="50.01878" lon="1.9154">
        <ele>71.4</ele>
        <time>2013-07-28T07:35:45Z</time>
      </trkpt>
      <trkpt lat="50.01865" lon="1.91532">
        <ele>74</ele>
        <time>2013-07-28T07:35:52Z</time>
      </trkpt>
      <trkpt lat="50.01856" lon="1.91512">
        <ele>74.3</ele>
        <time>2013-07-28T07:36:05Z</time>
      </trkpt>
      <trkpt lat="50.01845" lon="1.915">
        <ele>72.8</ele>
        <time>2013-07-28T07:36:14Z</time>
      </trkpt>
      <trkpt lat="50.01834" lon="1.91487">
        <ele>72.6</ele>
        <time>2013-07-28T07:36:25Z</time>
      </trkpt>
      <trkpt lat="50.01823" lon="1.91474">
        <ele>73.6</ele>
        <time>2013-07-28T07:36:38Z</time>
      </trkpt>
      <trkpt lat="50.0181" lon="1.91466">
        <ele>74.2</ele>
        <time>2013-07-28T07:36:46Z</time>
      </trkpt>
      <trkpt lat="50.01798" lon="1.91453">
        <ele>74.1</ele>
        <time>2013-07-28T07:37:01Z</time>
      </trkpt>
      <trkpt lat="50.01787" lon="1.91437">
        <ele>72</ele>
        <time>2013-07-28T07:37:13Z</time>
      </trkpt>
      <trkpt lat="50.01775" lon="1.91425">
        <ele>72.3</ele>
        <time>2013-07-28T07:37:23Z</time>
      </trkpt>
      <trkpt lat="50.01763" lon="1.91414">
        <ele>72.7</ele>
        <time>2013-07-28T07:37:35Z</time>
      </trkpt>
      <trkpt lat="50.01751" lon="1.91403">
        <ele>73</ele>
        <time>2013-07-28T07:37:45Z</time>
      </trkpt>
      <trkpt lat="50.01741" lon="1.91387">
        <ele>73.3</ele>
        <time>2013-07-28T07:37:57Z</time>
      </trkpt>
      <trkpt lat="50.01728" lon="1.91375">
        <ele>73.6</ele>
        <time>2013-07-28T07:38:06Z</time>
      </trkpt>
      <trkpt lat="50.01718" lon="1.91362">
        <ele>73.9</ele>
        <time>2013-07-28T07:38:17Z</time>
      </trkpt>
      <trkpt lat="50.01707" lon="1.91342">
        <ele>74.3</ele>
        <time>2013-07-28T07:38:29Z</time>
      </trkpt>
      <trkpt lat="50.01697" lon="1.91324">
        <ele>74.7</ele>
        <time>2013-07-28T07:38:43Z</time>
      </trkpt>
      <trkpt lat="50.01687" lon="1.91311">
        <ele>74.9</ele>
        <time>2013-07-28T07:38:51Z</time>
      </trkpt>
      <trkpt lat="50.01675" lon="1.91299">
        <ele>76.1</ele>
        <time>2013-07-28T07:39:00Z</time>
      </trkpt>
      <trkpt lat="50.01665" lon="1.91285">
        <ele>77.7</ele>
        <time>2013-07-28T07:39:12Z</time>
      </trkpt>
      <trkpt lat="50.01656" lon="1.91269">
        <ele>75.3</ele>
        <time>2013-07-28T07:39:21Z</time>
      </trkpt>
      <trkpt lat="50.01649" lon="1.9125">
        <ele>74</ele>
        <time>2013-07-28T07:39:31Z</time>
      </trkpt>
      <trkpt lat="50.01641" lon="1.91232">
        <ele>72.8</ele>
        <time>2013-07-28T07:39:41Z</time>
      </trkpt>
      <trkpt lat="50.0163" lon="1.9122">
        <ele>71.1</ele>
        <time>2013-07-28T07:39:53Z</time>
      </trkpt>
      <trkpt lat="50.01619" lon="1.91204">
        <ele>69.2</ele>
        <time>2013-07-28T07:40:04Z</time>
      </trkpt>
      <trkpt lat="50.01612" lon="1.91183">
        <ele>70.4</ele>
        <time>2013-07-28T07:40:15Z</time>
      </trkpt>
      <trkpt lat="50.01605" lon="1.9117">
        <ele>72.8</ele>
        <time>2013-07-28T07:40:23Z</time>
      </trkpt>
      <trkpt lat="50.01591" lon="1.91163">
        <ele>74.2</ele>
        <time>2013-07-28T07:40:31Z</time>
      </trkpt>
      <trkpt lat="50.01582" lon="1.91147">
        <ele>74.7</ele>
        <time>2013-07-28T07:40:44Z</time>
      </trkpt>
      <trkpt lat="50.01568" lon="1.91144">
        <ele>75</ele>
        <time>2013-07-28T07:40:51Z</time>
      </trkpt>
      <trkpt lat="50.01554" lon="1.91144">
        <ele>75.3</ele>
        <time>2013-07-28T07:40:58Z</time>
      </trkpt>
      <trkpt lat="50.01542" lon="1.91156">
        <ele>75.8</ele>
        <time>2013-07-28T07:41:12Z</time>
      </trkpt>
      <trkpt lat="50.01538" lon="1.91141">
        <ele>76.1</ele>
        <time>2013-07-28T07:41:21Z</time>
      </trkpt>
      <trkpt lat="50.01525" lon="1.91139">
        <ele>76.5</ele>
        <time>2013-07-28T07:41:30Z</time>
      </trkpt>
      <trkpt lat="50.01511" lon="1.91137">
        <ele>76.9</ele>
        <time>2013-07-28T07:41:39Z</time>
      </trkpt>
      <trkpt lat="50.01498" lon="1.91129">
        <ele>77.3</ele>
        <time>2013-07-28T07:41:49Z</time>
      </trkpt>
      <trkpt lat="50.01484" lon="1.91123">
        <ele>77.7</ele>
        <time>2013-07-28T07:42:00Z</time>
      </trkpt>
      <trkpt lat="50.0147" lon="1.91118">
        <ele>78.2</ele>
        <time>2013-07-28T07:42:13Z</time>
      </trkpt>
      <trkpt lat="50.01457" lon="1.91109">
        <ele>78.7</ele>
        <time>2013-07-28T07:42:24Z</time>
      </trkpt>
      <trkpt lat="50.01446" lon="1.91094">
        <ele>79.3</ele>
        <time>2013-07-28T07:42:38Z</time>
      </trkpt>
      <trkpt lat="50.01434" lon="1.91081">
        <ele>79.8</ele>
        <time>2013-07-28T07:42:47Z</time>
      </trkpt>
      <trkpt lat="50.0142" lon="1.91079">
        <ele>80</ele>
        <time>2013-07-28T07:42:56Z</time>
      </trkpt>
      <trkpt lat="50.01405" lon="1.91072">
        <ele>80.2</ele>
        <time>2013-07-28T07:43:03Z</time>
      </trkpt>
      <trkpt lat="50.01393" lon="1.91062">
        <ele>80.7</ele>
        <time>2013-07-28T07:43:12Z</time>
      </trkpt>
      <trkpt lat="50.0138" lon="1.91056">
        <ele>81.1</ele>
        <time>2013-07-28T07:43:23Z</time>
      </trkpt>
      <trkpt lat="50.01372" lon="1.91053">
        <ele>82.2</ele>
        <time>2013-07-28T07:43:46Z</time>
      </trkpt>
      <trkpt lat="50.01355" lon="1.91038">
        <ele>82.5</ele>
        <time>2013-07-28T07:43:51Z</time>
      </trkpt>
      <trkpt lat="50.0134" lon="1.91045">
        <ele>82.6</ele>
        <time>2013-07-28T07:43:55Z</time>
      </trkpt>
      <trkpt lat="50.01328" lon="1.91034">
        <ele>86</ele>
        <time>2013-07-28T07:44:08Z</time>
      </trkpt>
      <trkpt lat="50.01314" lon="1.91024">
        <ele>86.3</ele>
        <time>2013-07-28T07:44:13Z</time>
      </trkpt>
      <trkpt lat="50.01301" lon="1.91015">
        <ele>86.7</ele>
        <time>2013-07-28T07:44:23Z</time>
      </trkpt>
      <trkpt lat="50.01286" lon="1.91016">
        <ele>87.2</ele>
        <time>2013-07-28T07:44:35Z</time>
      </trkpt>
      <trkpt lat="50.01271" lon="1.91021">
        <ele>87.7</ele>
        <time>2013-07-28T07:44:45Z</time>
      </trkpt>
      <trkpt lat="50.01258" lon="1.91029">
        <ele>88.1</ele>
        <time>2013-07-28T07:44:55Z</time>
      </trkpt>
      <trkpt lat="50.01248" lon="1.91045">
        <ele>88.5</ele>
        <time>2013-07-28T07:45:04Z</time>
      </trkpt>
      <trkpt lat="50.01243" lon="1.91065">
        <ele>89</ele>
        <time>2013-07-28T07:45:15Z</time>
      </trkpt>
      <trkpt lat="50.01247" lon="1.91085">
        <ele>92</ele>
        <time>2013-07-28T07:45:26Z</time>
      </trkpt>
      <trkpt lat="50.01253" lon="1.91104">
        <ele>90.6</ele>
        <time>2013-07-28T07:45:33Z</time>
      </trkpt>
      <trkpt lat="50.01258" lon="1.91125">
        <ele>89.1</ele>
        <time>2013-07-28T07:45:44Z</time>
      </trkpt>
      <trkpt lat="50.01265" lon="1.91143">
        <ele>91</ele>
        <time>2013-07-28T07:45:56Z</time>
      </trkpt>
      <trkpt lat="50.0127" lon="1.91165">
        <ele>92.7</ele>
        <time>2013-07-28T07:46:07Z</time>
      </trkpt>
      <trkpt lat="50.01273" lon="1.91187">
        <ele>94.4</ele>
        <time>2013-07-28T07:46:18Z</time>
      </trkpt>
      <trkpt lat="50.01274" lon="1.91208">
        <ele>88.7</ele>
        <time>2013-07-28T07:46:29Z</time>
      </trkpt>
      <trkpt lat="50.01275" lon="1.91229">
        <ele>89.8</ele>
        <time>2013-07-28T07:46:41Z</time>
      </trkpt>
      <trkpt lat="50.01274" lon="1.9125">
        <ele>89.2</ele>
        <time>2013-07-28T07:46:49Z</time>
      </trkpt>
      <trkpt lat="50.01271" lon="1.91273">
        <ele>88.2</ele>
        <time>2013-07-28T07:47:00Z</time>
      </trkpt>
      <trkpt lat="50.01276" lon="1.91294">
        <ele>87.4</ele>
        <time>2013-07-28T07:47:09Z</time>
      </trkpt>
      <trkpt lat="50.01285" lon="1.91311">
        <ele>86.6</ele>
        <time>2013-07-28T07:47:20Z</time>
      </trkpt>
      <trkpt lat="50.01294" lon="1.91328">
        <ele>85.7</ele>
        <time>2013-07-28T07:47:32Z</time>
      </trkpt>
      <trkpt lat="50.01303" lon="1.91345">
        <ele>85.2</ele>
        <time>2013-07-28T07:47:41Z</time>
      </trkpt>
      <trkpt lat="50.01312" lon="1.91361">
        <ele>84.7</ele>
        <time>2013-07-28T07:47:49Z</time>
      </trkpt>
      <trkpt lat="50.0132" lon="1.91378">
        <ele>84.2</ele>
        <time>2013-07-28T07:48:00Z</time>
      </trkpt>
      <trkpt lat="50.01328" lon="1.91396">
        <ele>83.6</ele>
        <time>2013-07-28T07:48:10Z</time>
      </trkpt>
      <trkpt lat="50.01335" lon="1.91415">
        <ele>83.1</ele>
        <time>2013-07-28T07:48:20Z</time>
      </trkpt>
      <trkpt lat="50.01343" lon="1.91433">
        <ele>84.5</ele>
        <time>2013-07-28T07:48:31Z</time>
      </trkpt>
      <trkpt lat="50.0135" lon="1.91452">
        <ele>90.2</ele>
        <time>2013-07-28T07:48:41Z</time>
      </trkpt>
      <trkpt lat="50.01357" lon="1.9147">
        <ele>90.3</ele>
        <time>2013-07-28T07:48:53Z</time>
      </trkpt>
      <trkpt lat="50.01364" lon="1.91489">
        <ele>89.6</ele>
        <time>2013-07-28T07:49:05Z</time>
      </trkpt>
      <trkpt lat="50.01368" lon="1.9151">
        <ele>88.8</ele>
        <time>2013-07-28T07:49:17Z</time>
      </trkpt>
      <trkpt lat="50.01377" lon="1.91527">
        <ele>88.2</ele>
        <time>2013-07-28T07:49:27Z</time>
      </trkpt>
      <trkpt lat="50.01386" lon="1.91544">
        <ele>87.4</ele>
        <time>2013-07-28T07:49:38Z</time>
      </trkpt>
      <trkpt lat="50.01396" lon="1.91559">
        <ele>87.2</ele>
        <time>2013-07-28T07:49:48Z</time>
      </trkpt>
      <trkpt lat="50.01406" lon="1.91575">
        <ele>88.2</ele>
        <time>2013-07-28T07:50:00Z</time>
      </trkpt>
      <trkpt lat="50.01416" lon="1.91592">
        <ele>89.2</ele>
        <time>2013-07-28T07:50:11Z</time>
      </trkpt>
      <trkpt lat="50.01426" lon="1.91606">
        <ele>89.9</ele>
        <time>2013-07-28T07:50:19Z</time>
      </trkpt>
      <trkpt lat="50.01434" lon="1.91623">
        <ele>92.9</ele>
        <time>2013-07-28T07:50:27Z</time>
      </trkpt>
      <trkpt lat="50.01439" lon="1.91644">
        <ele>88.5</ele>
        <time>2013-07-28T07:50:39Z</time>
      </trkpt>
      <trkpt lat="50.0144" lon="1.91665">
        <ele>89.3</ele>
        <time>2013-07-28T07:50:50Z</time>
      </trkpt>
      <trkpt lat="50.01444" lon="1.91687">
        <ele>90.1</ele>
        <time>2013-07-28T07:51:01Z</time>
      </trkpt>
      <trkpt lat="50.01448" lon="1.91708">
        <ele>90.8</ele>
        <time>2013-07-28T07:51:12Z</time>
      </trkpt>
      <trkpt lat="50.01452" lon="1.9173">
        <ele>90.1</ele>
        <time>2013-07-28T07:51:27Z</time>
      </trkpt>
      <trkpt lat="50.01456" lon="1.91751">
        <ele>89.4</ele>
        <time>2013-07-28T07:51:36Z</time>
      </trkpt>
      <trkpt lat="50.0146" lon="1.91773">
        <ele>88.7</ele>
        <time>2013-07-28T07:51:45Z</time>
      </trkpt>
      <trkpt lat="50.01462" lon="1.91795">
        <ele>87.5</ele>
        <time>2013-07-28T07:51:56Z</time>
      </trkpt>
      <trkpt lat="50.01465" lon="1.91817">
        <ele>85</ele>
        <time>2013-07-28T07:52:05Z</time>
      </trkpt>
      <trkpt lat="50.01471" lon="1.91837">
        <ele>87.7</ele>
        <time>2013-07-28T07:52:16Z</time>
      </trkpt>
      <trkpt lat="50.01473" lon="1.91858">
        <ele>86.9</ele>
        <time>2013-07-28T07:52:26Z</time>
      </trkpt>
      <trkpt lat="50.01479" lon="1.91877">
        <ele>86.1</ele>
        <time>2013-07-28T07:52:40Z</time>
      </trkpt>
      <trkpt lat="50.01483" lon="1.91899">
        <ele>85.3</ele>
        <time>2013-07-28T07:52:51Z</time>
      </trkpt>
      <trkpt lat="50.01486" lon="1.91919">
        <ele>84.2</ele>
        <time>2013-07-28T07:53:05Z</time>
      </trkpt>
      <trkpt lat="50.0149" lon="1.9194">
        <ele>83.3</ele>
        <time>2013-07-28T07:53:15Z</time>
      </trkpt>
      <trkpt lat="50.01493" lon="1.91962">
        <ele>82.4</ele>
        <time>2013-07-28T07:53:25Z</time>
      </trkpt>
      <trkpt lat="50.01498" lon="1.91982">
        <ele>82.5</ele>
        <time>2013-07-28T07:53:37Z</time>
      </trkpt>
      <trkpt lat="50.01496" lon="1.92004">
        <ele>83.2</ele>
        <time>2013-07-28T07:53:48Z</time>
      </trkpt>
      <trkpt lat="50.01501" lon="1.92024">
        <ele>83.8</ele>
        <time>2013-07-28T07:53:57Z</time>
      </trkpt>
      <trkpt lat="50.01505" lon="1.92045">
        <ele>84.4</ele>
        <time>2013-07-28T07:54:06Z</time>
      </trkpt>
      <trkpt lat="50.01509" lon="1.92067">
        <ele>84.9</ele>
        <time>2013-07-28T07:54:15Z</time>
      </trkpt>
      <trkpt lat="50.01516" lon="1.92085">
        <ele>89.3</ele>
        <time>2013-07-28T07:54:24Z</time>
      </trkpt>
      <trkpt lat="50.01522" lon="1.92105">
        <ele>91</ele>
        <time>2013-07-28T07:54:37Z</time>
      </trkpt>
      <trkpt lat="50.0153" lon="1.92125">
        <ele>92.9</ele>
        <time>2013-07-28T07:54:47Z</time>
      </trkpt>
      <trkpt lat="50.01537" lon="1.92146">
        <ele>92.1</ele>
        <time>2013-07-28T07:55:00Z</time>
      </trkpt>
      <trkpt lat="50.01539" lon="1.92168">
        <ele>91.5</ele>
        <time>2013-07-28T07:55:10Z</time>
      </trkpt>
      <trkpt lat="50.01541" lon="1.9219">
        <ele>89.5</ele>
        <time>2013-07-28T07:55:23Z</time>
      </trkpt>
      <trkpt lat="50.01549" lon="1.92208">
        <ele>80.5</ele>
        <time>2013-07-28T07:55:33Z</time>
      </trkpt>
      <trkpt lat="50.0156" lon="1.92222">
        <ele>74.8</ele>
        <time>2013-07-28T07:55:44Z</time>
      </trkpt>
      <trkpt lat="50.01568" lon="1.92241">
        <ele>73.6</ele>
        <time>2013-07-28T07:55:55Z</time>
      </trkpt>
      <trkpt lat="50.01572" lon="1.92263">
        <ele>72.2</ele>
        <time>2013-07-28T07:56:07Z</time>
      </trkpt>
      <trkpt lat="50.01578" lon="1.92282">
        <ele>74.9</ele>
        <time>2013-07-28T07:56:17Z</time>
      </trkpt>
      <trkpt lat="50.01582" lon="1.92304">
        <ele>72.3</ele>
        <time>2013-07-28T07:56:32Z</time>
      </trkpt>
      <trkpt lat="50.01589" lon="1.92323">
        <ele>68.2</ele>
        <time>2013-07-28T07:56:41Z</time>
      </trkpt>
      <trkpt lat="50.01595" lon="1.92343">
        <ele>65.3</ele>
        <time>2013-07-28T07:56:54Z</time>
      </trkpt>
      <trkpt lat="50.01605" lon="1.9236">
        <ele>62.4</ele>
        <time>2013-07-28T07:57:08Z</time>
      </trkpt>
      <trkpt lat="50.01612" lon="1.92379">
        <ele>59.8</ele>
        <time>2013-07-28T07:57:20Z</time>
      </trkpt>
      <trkpt lat="50.01616" lon="1.924">
        <ele>58.4</ele>
        <time>2013-07-28T07:57:31Z</time>
      </trkpt>
      <trkpt lat="50.01617" lon="1.92422">
        <ele>59.7</ele>
        <time>2013-07-28T07:57:40Z</time>
      </trkpt>
      <trkpt lat="50.01619" lon="1.92444">
        <ele>60.9</ele>
        <time>2013-07-28T07:57:49Z</time>
      </trkpt>
      <trkpt lat="50.01629" lon="1.92461">
        <ele>58.5</ele>
        <time>2013-07-28T07:58:01Z</time>
      </trkpt>
      <trkpt lat="50.01634" lon="1.92481">
        <ele>60.8</ele>
        <time>2013-07-28T07:58:11Z</time>
      </trkpt>
      <trkpt lat="50.01643" lon="1.92499">
        <ele>63.2</ele>
        <time>2013-07-28T07:58:24Z</time>
      </trkpt>
      <trkpt lat="50.0165" lon="1.92517">
        <ele>64.4</ele>
        <time>2013-07-28T07:58:34Z</time>
      </trkpt>
      <trkpt lat="50.0166" lon="1.92534">
        <ele>64.7</ele>
        <time>2013-07-28T07:58:42Z</time>
      </trkpt>
      <trkpt lat="50.01666" lon="1.92554">
        <ele>62.8</ele>
        <time>2013-07-28T07:59:00Z</time>
      </trkpt>
      <trkpt lat="50.01672" lon="1.92574">
        <ele>61.4</ele>
        <time>2013-07-28T07:59:16Z</time>
      </trkpt>
      <trkpt lat="50.01682" lon="1.9259">
        <ele>60.4</ele>
        <time>2013-07-28T07:59:27Z</time>
      </trkpt>
      <trkpt lat="50.01687" lon="1.92609">
        <ele>59.4</ele>
        <time>2013-07-28T07:59:37Z</time>
      </trkpt>
      <trkpt lat="50.01698" lon="1.92626">
        <ele>56.4</ele>
        <time>2013-07-28T07:59:56Z</time>
      </trkpt>
      <trkpt lat="50.01705" lon="1.92643">
        <ele>55.2</ele>
        <time>2013-07-28T08:00:07Z</time>
      </trkpt>
      <trkpt lat="50.01714" lon="1.92663">
        <ele>55.8</ele>
        <time>2013-07-28T08:00:18Z</time>
      </trkpt>
      <trkpt lat="50.01725" lon="1.92677">
        <ele>54.7</ele>
        <time>2013-07-28T08:00:32Z</time>
      </trkpt>
      <trkpt lat="50.01737" lon="1.92688">
        <ele>52.8</ele>
        <time>2013-07-28T08:00:47Z</time>
      </trkpt>
      <trkpt lat="50.01748" lon="1.92701">
        <ele>51.5</ele>
        <time>2013-07-28T08:00:59Z</time>
      </trkpt>
      <trkpt lat="50.01758" lon="1.92717">
        <ele>49.8</ele>
        <time>2013-07-28T08:01:19Z</time>
      </trkpt>
      <trkpt lat="50.01766" lon="1.92734">
        <ele>49.1</ele>
        <time>2013-07-28T08:01:29Z</time>
      </trkpt>
      <trkpt lat="50.01776" lon="1.92749">
        <ele>47.3</ele>
        <time>2013-07-28T08:01:43Z</time>
      </trkpt>
      <trkpt lat="50.01785" lon="1.92766">
        <ele>45.7</ele>
        <time>2013-07-28T08:01:55Z</time>
      </trkpt>
      <trkpt lat="50.01796" lon="1.9278">
        <ele>42.2</ele>
        <time>2013-07-28T08:02:08Z</time>
      </trkpt>
      <trkpt lat="50.01807" lon="1.92793">
        <ele>34.9</ele>
        <time>2013-07-28T08:02:25Z</time>
      </trkpt>
      <trkpt lat="50.01817" lon="1.92833">
        <ele>33.2</ele>
        <time>2013-07-28T08:02:44Z</time>
      </trkpt>
      <trkpt lat="50.01817" lon="1.92833">
        <ele>33.2</ele>
        <time>2013-07-28T08:04:05Z</time>
      </trkpt>
      <trkpt lat="50.01825" lon="1.92852">
        <ele>31.8</ele>
        <time>2013-07-28T08:04:07Z</time>
      </trkpt>
      <trkpt lat="50.01829" lon="1.92873">
        <ele>32.5</ele>
        <time>2013-07-28T08:04:19Z</time>
      </trkpt>
      <trkpt lat="50.01832" lon="1.92895">
        <ele>33.2</ele>
        <time>2013-07-28T08:04:32Z</time>
      </trkpt>
      <trkpt lat="50.01838" lon="1.92914">
        <ele>33.7</ele>
        <time>2013-07-28T08:04:41Z</time>
      </trkpt>
      <trkpt lat="50.01842" lon="1.92934">
        <ele>29.5</ele>
        <time>2013-07-28T08:04:53Z</time>
      </trkpt>
      <trkpt lat="50.01853" lon="1.9295">
        <ele>24.8</ele>
        <time>2013-07-28T08:05:05Z</time>
      </trkpt>
      <trkpt lat="50.0186" lon="1.92969">
        <ele>23.7</ele>
        <time>2013-07-28T08:05:16Z</time>
      </trkpt>
      <trkpt lat="50.01872" lon="1.92982">
        <ele>22.5</ele>
        <time>2013-07-28T08:05:28Z</time>
      </trkpt>
      <trkpt lat="50.01877" lon="1.92999">
        <ele>20.5</ele>
        <time>2013-07-28T08:05:37Z</time>
      </trkpt>
      <trkpt lat="50.01864" lon="1.93005">
        <ele>13</ele>
        <time>2013-07-28T08:05:48Z</time>
      </trkpt>
      <trkpt lat="50.0185" lon="1.92999">
        <ele>14.8</ele>
        <time>2013-07-28T08:06:00Z</time>
      </trkpt>
      <trkpt lat="50.01837" lon="1.92991">
        <ele>16</ele>
        <time>2013-07-28T08:06:07Z</time>
      </trkpt>
      <trkpt lat="50.01824" lon="1.92993">
        <ele>18.4</ele>
        <time>2013-07-28T08:06:24Z</time>
      </trkpt>
      <trkpt lat="50.01811" lon="1.92985">
        <ele>19.6</ele>
        <time>2013-07-28T08:06:32Z</time>
      </trkpt>
      <trkpt lat="50.01799" lon="1.92973">
        <ele>20.6</ele>
        <time>2013-07-28T08:06:42Z</time>
      </trkpt>
      <trkpt lat="50.01785" lon="1.92965">
        <ele>21.3</ele>
        <time>2013-07-28T08:06:51Z</time>
      </trkpt>
      <trkpt lat="50.01772" lon="1.92957">
        <ele>22.5</ele>
        <time>2013-07-28T08:07:05Z</time>
      </trkpt>
      <trkpt lat="50.01759" lon="1.92953">
        <ele>24.9</ele>
        <time>2013-07-28T08:07:21Z</time>
      </trkpt>
      <trkpt lat="50.01744" lon="1.92954">
        <ele>27.3</ele>
        <time>2013-07-28T08:07:32Z</time>
      </trkpt>
      <trkpt lat="50.0173" lon="1.92954">
        <ele>24.3</ele>
        <time>2013-07-28T08:07:42Z</time>
      </trkpt>
      <trkpt lat="50.01717" lon="1.92953">
        <ele>26.1</ele>
        <time>2013-07-28T08:07:54Z</time>
      </trkpt>
      <trkpt lat="50.01702" lon="1.92953">
        <ele>21.5</ele>
        <time>2013-07-28T08:08:05Z</time>
      </trkpt>
      <trkpt lat="50.01688" lon="1.92956">
        <ele>18.9</ele>
        <time>2013-07-28T08:08:16Z</time>
      </trkpt>
      <trkpt lat="50.01675" lon="1.92963">
        <ele>17.6</ele>
        <time>2013-07-28T08:08:26Z</time>
      </trkpt>
      <trkpt lat="50.0167" lon="1.92964">
        <ele>17.2</ele>
        <time>2013-07-28T08:08:33Z</time>
      </trkpt>
      <trkpt lat="50.01656" lon="1.92969">
        <ele>18.3</ele>
        <time>2013-07-28T08:08:43Z</time>
      </trkpt>
      <trkpt lat="50.01643" lon="1.92962">
        <ele>19.4</ele>
        <time>2013-07-28T08:08:49Z</time>
      </trkpt>
      <trkpt lat="50.0163" lon="1.92956">
        <ele>20.8</ele>
        <time>2013-07-28T08:08:57Z</time>
      </trkpt>
      <trkpt lat="50.01616" lon="1.92952">
        <ele>22.3</ele>
        <time>2013-07-28T08:09:07Z</time>
      </trkpt>
      <trkpt lat="50.01602" lon="1.92953">
        <ele>23.4</ele>
        <time>2013-07-28T08:09:15Z</time>
      </trkpt>
      <trkpt lat="50.01588" lon="1.92951">
        <ele>25.3</ele>
        <time>2013-07-28T08:09:31Z</time>
      </trkpt>
      <trkpt lat="50.01574" lon="1.92946">
        <ele>27</ele>
        <time>2013-07-28T08:09:40Z</time>
      </trkpt>
      <trkpt lat="50.0156" lon="1.92946">
        <ele>29.7</ele>
        <time>2013-07-28T08:09:51Z</time>
      </trkpt>
      <trkpt lat="50.01546" lon="1.92945">
        <ele>28.9</ele>
        <time>2013-07-28T08:10:05Z</time>
      </trkpt>
      <trkpt lat="50.01532" lon="1.92942">
        <ele>28.2</ele>
        <time>2013-07-28T08:10:16Z</time>
      </trkpt>
      <trkpt lat="50.0152" lon="1.92932">
        <ele>29.3</ele>
        <time>2013-07-28T08:10:31Z</time>
      </trkpt>
      <trkpt lat="50.01508" lon="1.92919">
        <ele>30.1</ele>
        <time>2013-07-28T08:10:43Z</time>
      </trkpt>
      <trkpt lat="50.01497" lon="1.92905">
        <ele>30.9</ele>
        <time>2013-07-28T08:10:54Z</time>
      </trkpt>
      <trkpt lat="50.01486" lon="1.9289">
        <ele>31.6</ele>
        <time>2013-07-28T08:11:03Z</time>
      </trkpt>
      <trkpt lat="50.01477" lon="1.92876">
        <ele>32.2</ele>
        <time>2013-07-28T08:11:11Z</time>
      </trkpt>
      <trkpt lat="50.01467" lon="1.92858">
        <ele>33.1</ele>
        <time>2013-07-28T08:11:23Z</time>
      </trkpt>
      <trkpt lat="50.01459" lon="1.9284">
        <ele>33.7</ele>
        <time>2013-07-28T08:11:31Z</time>
      </trkpt>
      <trkpt lat="50.01447" lon="1.92826">
        <ele>34.6</ele>
        <time>2013-07-28T08:11:44Z</time>
      </trkpt>
      <trkpt lat="50.01436" lon="1.92813">
        <ele>36.9</ele>
        <time>2013-07-28T08:11:53Z</time>
      </trkpt>
      <trkpt lat="50.01429" lon="1.92795">
        <ele>35.3</ele>
        <time>2013-07-28T08:12:04Z</time>
      </trkpt>
      <trkpt lat="50.01419" lon="1.92778">
        <ele>36.3</ele>
        <time>2013-07-28T08:12:17Z</time>
      </trkpt>
      <trkpt lat="50.0141" lon="1.92762">
        <ele>39.3</ele>
        <time>2013-07-28T08:12:27Z</time>
      </trkpt>
      <trkpt lat="50.014" lon="1.92748">
        <ele>36.9</ele>
        <time>2013-07-28T08:12:38Z</time>
      </trkpt>
      <trkpt lat="50.01388" lon="1.92734">
        <ele>34</ele>
        <time>2013-07-28T08:12:51Z</time>
      </trkpt>
      <trkpt lat="50.01377" lon="1.9272">
        <ele>31.1</ele>
        <time>2013-07-28T08:13:14Z</time>
      </trkpt>
      <trkpt lat="50.01367" lon="1.92705">
        <ele>30.2</ele>
        <time>2013-07-28T08:13:21Z</time>
      </trkpt>
      <trkpt lat="50.01358" lon="1.92689">
        <ele>29.3</ele>
        <time>2013-07-28T08:13:28Z</time>
      </trkpt>
      <trkpt lat="50.01346" lon="1.92675">
        <ele>27.5</ele>
        <time>2013-07-28T08:13:36Z</time>
      </trkpt>
      <trkpt lat="50.01337" lon="1.92658">
        <ele>25.6</ele>
        <time>2013-07-28T08:13:44Z</time>
      </trkpt>
      <trkpt lat="50.01322" lon="1.92652">
        <ele>23.4</ele>
        <time>2013-07-28T08:13:56Z</time>
      </trkpt>
      <trkpt lat="50.01309" lon="1.92643">
        <ele>25</ele>
        <time>2013-07-28T08:14:10Z</time>
      </trkpt>
      <trkpt lat="50.01297" lon="1.9263">
        <ele>27.3</ele>
        <time>2013-07-28T08:14:19Z</time>
      </trkpt>
      <trkpt lat="50.01286" lon="1.92617">
        <ele>25.6</ele>
        <time>2013-07-28T08:14:30Z</time>
      </trkpt>
      <trkpt lat="50.01274" lon="1.92606">
        <ele>27.1</ele>
        <time>2013-07-28T08:14:41Z</time>
      </trkpt>
      <trkpt lat="50.0126" lon="1.92597">
        <ele>28.7</ele>
        <time>2013-07-28T08:14:52Z</time>
      </trkpt>
      <trkpt lat="50.01248" lon="1.92584">
        <ele>30.5</ele>
        <time>2013-07-28T08:15:01Z</time>
      </trkpt>
      <trkpt lat="50.01237" lon="1.92568">
        <ele>38.3</ele>
        <time>2013-07-28T08:15:17Z</time>
      </trkpt>
      <trkpt lat="50.01225" lon="1.92556">
        <ele>41.2</ele>
        <time>2013-07-28T08:15:25Z</time>
      </trkpt>
      <trkpt lat="50.0121" lon="1.92554">
        <ele>43.9</ele>
        <time>2013-07-28T08:15:35Z</time>
      </trkpt>
      <trkpt lat="50.01195" lon="1.92551">
        <ele>42.6</ele>
        <time>2013-07-28T08:15:48Z</time>
      </trkpt>
      <trkpt lat="50.01182" lon="1.92549">
        <ele>41.3</ele>
        <time>2013-07-28T08:15:57Z</time>
      </trkpt>
      <trkpt lat="50.01166" lon="1.92549">
        <ele>36.8</ele>
        <time>2013-07-28T08:16:07Z</time>
      </trkpt>
      <trkpt lat="50.01152" lon="1.92545">
        <ele>35</ele>
        <time>2013-07-28T08:16:16Z</time>
      </trkpt>
      <trkpt lat="50.0114" lon="1.92538">
        <ele>35</ele>
        <time>2013-07-28T08:16:29Z</time>
      </trkpt>
      <trkpt lat="50.01127" lon="1.92525">
        <ele>34.5</ele>
        <time>2013-07-28T08:16:41Z</time>
      </trkpt>
      <trkpt lat="50.01113" lon="1.92518">
        <ele>32.3</ele>
        <time>2013-07-28T08:16:49Z</time>
      </trkpt>
      <trkpt lat="50.01099" lon="1.92513">
        <ele>27.6</ele>
        <time>2013-07-28T08:16:59Z</time>
      </trkpt>
      <trkpt lat="50.01085" lon="1.92506">
        <ele>22.2</ele>
        <time>2013-07-28T08:17:12Z</time>
      </trkpt>
      <trkpt lat="50.01072" lon="1.925">
        <ele>19</ele>
        <time>2013-07-28T08:17:24Z</time>
      </trkpt>
      <trkpt lat="50.0106" lon="1.92491">
        <ele>19</ele>
        <time>2013-07-28T08:17:38Z</time>
      </trkpt>
      <trkpt lat="50.01047" lon="1.92479">
        <ele>19</ele>
        <time>2013-07-28T08:17:48Z</time>
      </trkpt>
      <trkpt lat="50.01035" lon="1.92473">
        <ele>21.3</ele>
        <time>2013-07-28T08:17:58Z</time>
      </trkpt>
      <trkpt lat="50.01024" lon="1.92458">
        <ele>25.5</ele>
        <time>2013-07-28T08:18:06Z</time>
      </trkpt>
      <trkpt lat="50.0101" lon="1.92451">
        <ele>31.9</ele>
        <time>2013-07-28T08:18:19Z</time>
      </trkpt>
      <trkpt lat="50.00999" lon="1.92435">
        <ele>32.2</ele>
        <time>2013-07-28T08:18:25Z</time>
      </trkpt>
      <trkpt lat="50.00986" lon="1.92431">
        <ele>29.7</ele>
        <time>2013-07-28T08:18:38Z</time>
      </trkpt>
      <trkpt lat="50.00973" lon="1.92422">
        <ele>28.7</ele>
        <time>2013-07-28T08:18:48Z</time>
      </trkpt>
      <trkpt lat="50.00959" lon="1.92415">
        <ele>28</ele>
        <time>2013-07-28T08:18:59Z</time>
      </trkpt>
      <trkpt lat="50.00947" lon="1.92406">
        <ele>31</ele>
        <time>2013-07-28T08:19:11Z</time>
      </trkpt>
      <trkpt lat="50.00941" lon="1.92406">
        <ele>32</ele>
        <time>2013-07-28T08:19:19Z</time>
      </trkpt>
      <trkpt lat="50.00933" lon="1.92388">
        <ele>33.2</ele>
        <time>2013-07-28T08:19:28Z</time>
      </trkpt>
      <trkpt lat="50.00921" lon="1.92377">
        <ele>31.9</ele>
        <time>2013-07-28T08:19:40Z</time>
      </trkpt>
      <trkpt lat="50.00907" lon="1.92368">
        <ele>29.1</ele>
        <time>2013-07-28T08:19:47Z</time>
      </trkpt>
      <trkpt lat="50.00893" lon="1.92364">
        <ele>30.8</ele>
        <time>2013-07-28T08:20:02Z</time>
      </trkpt>
      <trkpt lat="50.00879" lon="1.92364">
        <ele>33.5</ele>
        <time>2013-07-28T08:20:15Z</time>
      </trkpt>
      <trkpt lat="50.00865" lon="1.92366">
        <ele>36.1</ele>
        <time>2013-07-28T08:20:29Z</time>
      </trkpt>
      <trkpt lat="50.00846" lon="1.92361">
        <ele>37.6</ele>
        <time>2013-07-28T08:20:48Z</time>
      </trkpt>
      <trkpt lat="50.00846" lon="1.92361">
        <ele>37.6</ele>
        <time>2013-07-28T08:21:28Z</time>
      </trkpt>
      <trkpt lat="50.0084" lon="1.92362">
        <ele>35.8</ele>
        <time>2013-07-28T08:21:30Z</time>
      </trkpt>
      <trkpt lat="50.00825" lon="1.92359">
        <ele>35.5</ele>
        <time>2013-07-28T08:21:37Z</time>
      </trkpt>
      <trkpt lat="50.0081" lon="1.92364">
        <ele>33.8</ele>
        <time>2013-07-28T08:21:45Z</time>
      </trkpt>
      <trkpt lat="50.00799" lon="1.92379">
        <ele>32.6</ele>
        <time>2013-07-28T08:21:52Z</time>
      </trkpt>
      <trkpt lat="50.00785" lon="1.92385">
        <ele>28.6</ele>
        <time>2013-07-28T08:22:01Z</time>
      </trkpt>
      <trkpt lat="50.00771" lon="1.92387">
        <ele>26.9</ele>
        <time>2013-07-28T08:22:11Z</time>
      </trkpt>
      <trkpt lat="50.00757" lon="1.92395">
        <ele>28.5</ele>
        <time>2013-07-28T08:22:21Z</time>
      </trkpt>
      <trkpt lat="50.00743" lon="1.92396">
        <ele>29.6</ele>
        <time>2013-07-28T08:22:33Z</time>
      </trkpt>
      <trkpt lat="50.00727" lon="1.92389">
        <ele>31.6</ele>
        <time>2013-07-28T08:22:42Z</time>
      </trkpt>
      <trkpt lat="50.00713" lon="1.92376">
        <ele>37</ele>
        <time>2013-07-28T08:22:49Z</time>
      </trkpt>
      <trkpt lat="50.00699" lon="1.9237">
        <ele>34.8</ele>
        <time>2013-07-28T08:22:57Z</time>
      </trkpt>
      <trkpt lat="50.0069" lon="1.92359">
        <ele>36.1</ele>
        <time>2013-07-28T08:23:03Z</time>
      </trkpt>
      <trkpt lat="50.00692" lon="1.92338">
        <ele>37.7</ele>
        <time>2013-07-28T08:23:09Z</time>
      </trkpt>
      <trkpt lat="50.00698" lon="1.92317">
        <ele>36.9</ele>
        <time>2013-07-28T08:23:20Z</time>
      </trkpt>
      <trkpt lat="50.00703" lon="1.92297">
        <ele>36.1</ele>
        <time>2013-07-28T08:23:32Z</time>
      </trkpt>
      <trkpt lat="50.00704" lon="1.92274">
        <ele>38.3</ele>
        <time>2013-07-28T08:23:41Z</time>
      </trkpt>
      <trkpt lat="50.00706" lon="1.92252">
        <ele>39.3</ele>
        <time>2013-07-28T08:23:53Z</time>
      </trkpt>
      <trkpt lat="50.00709" lon="1.9223">
        <ele>39</ele>
        <time>2013-07-28T08:24:02Z</time>
      </trkpt>
      <trkpt lat="50.00707" lon="1.92209">
        <ele>44.2</ele>
        <time>2013-07-28T08:24:15Z</time>
      </trkpt>
      <trkpt lat="50.00712" lon="1.92189">
        <ele>46</ele>
        <time>2013-07-28T08:24:26Z</time>
      </trkpt>
      <trkpt lat="50.0072" lon="1.92173">
        <ele>46</ele>
        <time>2013-07-28T08:24:37Z</time>
      </trkpt>
      <trkpt lat="50.00736" lon="1.92125">
        <ele>51.2</ele>
        <time>2013-07-28T08:24:59Z</time>
      </trkpt>
      <trkpt lat="50.00736" lon="1.92125">
        <ele>51.2</ele>
        <time>2013-07-28T08:28:08Z</time>
      </trkpt>
      <trkpt lat="50.00745" lon="1.92098">
        <ele>55.5</ele>
        <time>2013-07-28T08:28:18Z</time>
      </trkpt>
      <trkpt lat="50.00753" lon="1.9208">
        <ele>55.6</ele>
        <time>2013-07-28T08:28:30Z</time>
      </trkpt>
      <trkpt lat="50.00761" lon="1.92061">
        <ele>57.3</ele>
        <time>2013-07-28T08:28:44Z</time>
      </trkpt>
      <trkpt lat="50.00758" lon="1.9204">
        <ele>59.8</ele>
        <time>2013-07-28T08:29:02Z</time>
      </trkpt>
      <trkpt lat="50.00764" lon="1.92019">
        <ele>63.6</ele>
        <time>2013-07-28T08:29:17Z</time>
      </trkpt>
      <trkpt lat="50.00774" lon="1.92001">
        <ele>67.1</ele>
        <time>2013-07-28T08:29:29Z</time>
      </trkpt>
      <trkpt lat="50.00783" lon="1.91982">
        <ele>70</ele>
        <time>2013-07-28T08:29:37Z</time>
      </trkpt>
      <trkpt lat="50.00785" lon="1.91961">
        <ele>71.2</ele>
        <time>2013-07-28T08:29:47Z</time>
      </trkpt>
      <trkpt lat="50.00785" lon="1.9194">
        <ele>71.1</ele>
        <time>2013-07-28T08:29:59Z</time>
      </trkpt>
      <trkpt lat="50.00787" lon="1.91918">
        <ele>70.6</ele>
        <time>2013-07-28T08:30:09Z</time>
      </trkpt>
      <trkpt lat="50.00789" lon="1.91897">
        <ele>70.1</ele>
        <time>2013-07-28T08:30:18Z</time>
      </trkpt>
      <trkpt lat="50.00789" lon="1.91874">
        <ele>67.8</ele>
        <time>2013-07-28T08:30:30Z</time>
      </trkpt>
      <trkpt lat="50.00791" lon="1.91852">
        <ele>65</ele>
        <time>2013-07-28T08:30:43Z</time>
      </trkpt>
      <trkpt lat="50.00788" lon="1.91831">
        <ele>63.5</ele>
        <time>2013-07-28T08:30:55Z</time>
      </trkpt>
      <trkpt lat="50.00793" lon="1.9181">
        <ele>68.6</ele>
        <time>2013-07-28T08:31:06Z</time>
      </trkpt>
      <trkpt lat="50.00794" lon="1.91789">
        <ele>73</ele>
        <time>2013-07-28T08:31:16Z</time>
      </trkpt>
      <trkpt lat="50.00793" lon="1.91767">
        <ele>77.3</ele>
        <time>2013-07-28T08:31:28Z</time>
      </trkpt>
      <trkpt lat="50.00796" lon="1.91744">
        <ele>77.7</ele>
        <time>2013-07-28T08:31:35Z</time>
      </trkpt>
      <trkpt lat="50.00798" lon="1.91723">
        <ele>73.5</ele>
        <time>2013-07-28T08:31:53Z</time>
      </trkpt>
      <trkpt lat="50.00797" lon="1.91701">
        <ele>72.7</ele>
        <time>2013-07-28T08:32:08Z</time>
      </trkpt>
      <trkpt lat="50.008" lon="1.9168">
        <ele>71.1</ele>
        <time>2013-07-28T08:32:19Z</time>
      </trkpt>
      <trkpt lat="50.00803" lon="1.91659">
        <ele>72.6</ele>
        <time>2013-07-28T08:32:29Z</time>
      </trkpt>
      <trkpt lat="50.0081" lon="1.91639">
        <ele>74.9</ele>
        <time>2013-07-28T08:32:41Z</time>
      </trkpt>
      <trkpt lat="50.00815" lon="1.91617">
        <ele>77.6</ele>
        <time>2013-07-28T08:32:50Z</time>
      </trkpt>
      <trkpt lat="50.00818" lon="1.91596">
        <ele>74.4</ele>
        <time>2013-07-28T08:33:03Z</time>
      </trkpt>
      <trkpt lat="50.00821" lon="1.91573">
        <ele>73.7</ele>
        <time>2013-07-28T08:33:14Z</time>
      </trkpt>
      <trkpt lat="50.00825" lon="1.91552">
        <ele>75.7</ele>
        <time>2013-07-28T08:33:25Z</time>
      </trkpt>
      <trkpt lat="50.0083" lon="1.91531">
        <ele>76.7</ele>
        <time>2013-07-28T08:33:38Z</time>
      </trkpt>
      <trkpt lat="50.00834" lon="1.91508">
        <ele>77.6</ele>
        <time>2013-07-28T08:33:49Z</time>
      </trkpt>
      <trkpt lat="50.00839" lon="1.91487">
        <ele>76.5</ele>
        <time>2013-07-28T08:34:03Z</time>
      </trkpt>
      <trkpt lat="50.00842" lon="1.91465">
        <ele>73.9</ele>
        <time>2013-07-28T08:34:15Z</time>
      </trkpt>
      <trkpt lat="50.00845" lon="1.91442">
        <ele>71.5</ele>
        <time>2013-07-28T08:34:26Z</time>
      </trkpt>
      <trkpt lat="50.00849" lon="1.9142">
        <ele>73.1</ele>
        <time>2013-07-28T08:34:39Z</time>
      </trkpt>
      <trkpt lat="50.00847" lon="1.91392">
        <ele>74.1</ele>
        <time>2013-07-28T08:35:02Z</time>
      </trkpt>
      <trkpt lat="50.00847" lon="1.91392">
        <ele>74.1</ele>
        <time>2013-07-28T08:36:46Z</time>
      </trkpt>
      <trkpt lat="50.0084" lon="1.91384">
        <ele>77.8</ele>
        <time>2013-07-28T08:36:48Z</time>
      </trkpt>
      <trkpt lat="50.00831" lon="1.914">
        <ele>81.7</ele>
        <time>2013-07-28T08:36:56Z</time>
      </trkpt>
      <trkpt lat="50.00819" lon="1.9141">
        <ele>76.9</ele>
        <time>2013-07-28T08:37:09Z</time>
      </trkpt>
      <trkpt lat="50.00805" lon="1.91419">
        <ele>76.1</ele>
        <time>2013-07-28T08:37:22Z</time>
      </trkpt>
      <trkpt lat="50.00794" lon="1.91432">
        <ele>75.5</ele>
        <time>2013-07-28T08:37:30Z</time>
      </trkpt>
      <trkpt lat="50.00782" lon="1.91445">
        <ele>74.9</ele>
        <time>2013-07-28T08:37:40Z</time>
      </trkpt>
      <trkpt lat="50.00769" lon="1.91457">
        <ele>74.1</ele>
        <time>2013-07-28T08:37:51Z</time>
      </trkpt>
      <trkpt lat="50.00757" lon="1.91469">
        <ele>74</ele>
        <time>2013-07-28T08:38:00Z</time>
      </trkpt>
      <trkpt lat="50.00745" lon="1.91479">
        <ele>72.3</ele>
        <time>2013-07-28T08:38:14Z</time>
      </trkpt>
      <trkpt lat="50.00733" lon="1.91491">
        <ele>70.8</ele>
        <time>2013-07-28T08:38:25Z</time>
      </trkpt>
      <trkpt lat="50.00721" lon="1.91504">
        <ele>70.4</ele>
        <time>2013-07-28T08:38:33Z</time>
      </trkpt>
      <trkpt lat="50.0071" lon="1.91517">
        <ele>69.9</ele>
        <time>2013-07-28T08:38:44Z</time>
      </trkpt>
      <trkpt lat="50.00697" lon="1.91528">
        <ele>69.3</ele>
        <time>2013-07-28T08:38:55Z</time>
      </trkpt>
      <trkpt lat="50.00683" lon="1.91536">
        <ele>68.9</ele>
        <time>2013-07-28T08:39:05Z</time>
      </trkpt>
      <trkpt lat="50.00672" lon="1.91551">
        <ele>68.3</ele>
        <time>2013-07-28T08:39:16Z</time>
      </trkpt>
      <trkpt lat="50.00661" lon="1.91564">
        <ele>67.1</ele>
        <time>2013-07-28T08:39:26Z</time>
      </trkpt>
      <trkpt lat="50.0065" lon="1.91576">
        <ele>65.8</ele>
        <time>2013-07-28T08:39:36Z</time>
      </trkpt>
      <trkpt lat="50.00638" lon="1.91586">
        <ele>68.7</ele>
        <time>2013-07-28T08:39:44Z</time>
      </trkpt>
      <trkpt lat="50.00626" lon="1.91599">
        <ele>69.3</ele>
        <time>2013-07-28T08:39:54Z</time>
      </trkpt>
      <trkpt lat="50.00614" lon="1.91609">
        <ele>69.7</ele>
        <time>2013-07-28T08:40:05Z</time>
      </trkpt>
      <trkpt lat="50.00601" lon="1.91616">
        <ele>70.1</ele>
        <time>2013-07-28T08:40:17Z</time>
      </trkpt>
      <trkpt lat="50.00588" lon="1.91625">
        <ele>70.5</ele>
        <time>2013-07-28T08:40:28Z</time>
      </trkpt>
      <trkpt lat="50.00576" lon="1.91639">
        <ele>70.8</ele>
        <time>2013-07-28T08:40:38Z</time>
      </trkpt>
      <trkpt lat="50.00565" lon="1.91653">
        <ele>71.2</ele>
        <time>2013-07-28T08:40:50Z</time>
      </trkpt>
      <trkpt lat="50.00552" lon="1.91664">
        <ele>71.5</ele>
        <time>2013-07-28T08:41:00Z</time>
      </trkpt>
      <trkpt lat="50.0054" lon="1.91675">
        <ele>71.9</ele>
        <time>2013-07-28T08:41:11Z</time>
      </trkpt>
      <trkpt lat="50.00529" lon="1.91686">
        <ele>72.9</ele>
        <time>2013-07-28T08:41:21Z</time>
      </trkpt>
      <trkpt lat="50.00517" lon="1.91699">
        <ele>74.1</ele>
        <time>2013-07-28T08:41:31Z</time>
      </trkpt>
      <trkpt lat="50.00507" lon="1.91713">
        <ele>74</ele>
        <time>2013-07-28T08:41:41Z</time>
      </trkpt>
      <trkpt lat="50.00496" lon="1.91727">
        <ele>70.8</ele>
        <time>2013-07-28T08:41:55Z</time>
      </trkpt>
      <trkpt lat="50.00485" lon="1.91741">
        <ele>68</ele>
        <time>2013-07-28T08:42:06Z</time>
      </trkpt>
      <trkpt lat="50.00475" lon="1.91759">
        <ele>69.5</ele>
        <time>2013-07-28T08:42:17Z</time>
      </trkpt>
      <trkpt lat="50.00462" lon="1.91768">
        <ele>70.8</ele>
        <time>2013-07-28T08:42:26Z</time>
      </trkpt>
      <trkpt lat="50.00448" lon="1.91778">
        <ele>67.1</ele>
        <time>2013-07-28T08:42:39Z</time>
      </trkpt>
      <trkpt lat="50.00435" lon="1.91784">
        <ele>65.9</ele>
        <time>2013-07-28T08:42:50Z</time>
      </trkpt>
      <trkpt lat="50.00424" lon="1.918">
        <ele>67.8</ele>
        <time>2013-07-28T08:43:04Z</time>
      </trkpt>
      <trkpt lat="50.00411" lon="1.9181">
        <ele>71.5</ele>
        <time>2013-07-28T08:43:12Z</time>
      </trkpt>
      <trkpt lat="50.00399" lon="1.9182">
        <ele>74.7</ele>
        <time>2013-07-28T08:43:21Z</time>
      </trkpt>
      <trkpt lat="50.00386" lon="1.91832">
        <ele>76.7</ele>
        <time>2013-07-28T08:43:31Z</time>
      </trkpt>
      <trkpt lat="50.00374" lon="1.91843">
        <ele>79.1</ele>
        <time>2013-07-28T08:43:43Z</time>
      </trkpt>
      <trkpt lat="50.0036" lon="1.91856">
        <ele>79.5</ele>
        <time>2013-07-28T08:43:51Z</time>
      </trkpt>
      <trkpt lat="50.00348" lon="1.91866">
        <ele>80</ele>
        <time>2013-07-28T08:44:03Z</time>
      </trkpt>
      <trkpt lat="50.00337" lon="1.91881">
        <ele>80.8</ele>
        <time>2013-07-28T08:44:13Z</time>
      </trkpt>
      <trkpt lat="50.00326" lon="1.91893">
        <ele>79.4</ele>
        <time>2013-07-28T08:44:24Z</time>
      </trkpt>
      <trkpt lat="50.00315" lon="1.91905">
        <ele>78.3</ele>
        <time>2013-07-28T08:44:35Z</time>
      </trkpt>
      <trkpt lat="50.00329" lon="1.91906">
        <ele>75.3</ele>
        <time>2013-07-28T08:44:56Z</time>
      </trkpt>
      <trkpt lat="50.00334" lon="1.91925">
        <ele>73.8</ele>
        <time>2013-07-28T08:45:04Z</time>
      </trkpt>
      <trkpt lat="50.00343" lon="1.91944">
        <ele>72.8</ele>
        <time>2013-07-28T08:45:16Z</time>
      </trkpt>
      <trkpt lat="50.00351" lon="1.91962">
        <ele>71.9</ele>
        <time>2013-07-28T08:45:25Z</time>
      </trkpt>
      <trkpt lat="50.00356" lon="1.91982">
        <ele>71.1</ele>
        <time>2013-07-28T08:45:34Z</time>
      </trkpt>
      <trkpt lat="50.00363" lon="1.92003">
        <ele>68.8</ele>
        <time>2013-07-28T08:45:44Z</time>
      </trkpt>
      <trkpt lat="50.00367" lon="1.92026">
        <ele>67.7</ele>
        <time>2013-07-28T08:45:59Z</time>
      </trkpt>
      <trkpt lat="50.00377" lon="1.92043">
        <ele>64.7</ele>
        <time>2013-07-28T08:46:10Z</time>
      </trkpt>
      <trkpt lat="50.00384" lon="1.92062">
        <ele>63.4</ele>
        <time>2013-07-28T08:46:19Z</time>
      </trkpt>
      <trkpt lat="50.00393" lon="1.92079">
        <ele>62</ele>
        <time>2013-07-28T08:46:32Z</time>
      </trkpt>
      <trkpt lat="50.00397" lon="1.92101">
        <ele>61.2</ele>
        <time>2013-07-28T08:46:42Z</time>
      </trkpt>
      <trkpt lat="50.00403" lon="1.92121">
        <ele>58.4</ele>
        <time>2013-07-28T08:46:55Z</time>
      </trkpt>
      <trkpt lat="50.00405" lon="1.92142">
        <ele>56.8</ele>
        <time>2013-07-28T08:47:04Z</time>
      </trkpt>
      <trkpt lat="50.00415" lon="1.92156">
        <ele>55</ele>
        <time>2013-07-28T08:47:14Z</time>
      </trkpt>
      <trkpt lat="50.00418" lon="1.92178">
        <ele>53.2</ele>
        <time>2013-07-28T08:47:24Z</time>
      </trkpt>
      <trkpt lat="50.00419" lon="1.92199">
        <ele>51.8</ele>
        <time>2013-07-28T08:47:34Z</time>
      </trkpt>
      <trkpt lat="50.00422" lon="1.9222">
        <ele>50.3</ele>
        <time>2013-07-28T08:47:45Z</time>
      </trkpt>
      <trkpt lat="50.00434" lon="1.92234">
        <ele>52.4</ele>
        <time>2013-07-28T08:47:55Z</time>
      </trkpt>
      <trkpt lat="50.0044" lon="1.92254">
        <ele>53.9</ele>
        <time>2013-07-28T08:48:05Z</time>
      </trkpt>
      <trkpt lat="50.0044" lon="1.92273">
        <ele>55.4</ele>
        <time>2013-07-28T08:48:14Z</time>
      </trkpt>
      <trkpt lat="50.00449" lon="1.92291">
        <ele>59</ele>
        <time>2013-07-28T08:48:25Z</time>
      </trkpt>
      <trkpt lat="50.00445" lon="1.9233">
        <ele>58.2</ele>
        <time>2013-07-28T08:48:40Z</time>
      </trkpt>
      <trkpt lat="50.00445" lon="1.9233">
        <ele>58.2</ele>
        <time>2013-07-28T08:49:21Z</time>
      </trkpt>
      <trkpt lat="50.00439" lon="1.92347">
        <ele>57.4</ele>
        <time>2013-07-28T08:49:22Z</time>
      </trkpt>
      <trkpt lat="50.00426" lon="1.92354">
        <ele>56.6</ele>
        <time>2013-07-28T08:49:35Z</time>
      </trkpt>
      <trkpt lat="50.00415" lon="1.92367">
        <ele>55</ele>
        <time>2013-07-28T08:49:46Z</time>
      </trkpt>
      <trkpt lat="50.00405" lon="1.92381">
        <ele>53.3</ele>
        <time>2013-07-28T08:49:57Z</time>
      </trkpt>
      <trkpt lat="50.00393" lon="1.92395">
        <ele>52.9</ele>
        <time>2013-07-28T08:50:13Z</time>
      </trkpt>
      <trkpt lat="50.00389" lon="1.92409">
        <ele>54</ele>
        <time>2013-07-28T08:50:23Z</time>
      </trkpt>
      <trkpt lat="50.00384" lon="1.92429">
        <ele>55</ele>
        <time>2013-07-28T08:50:32Z</time>
      </trkpt>
      <trkpt lat="50.00382" lon="1.92451">
        <ele>56.1</ele>
        <time>2013-07-28T08:50:42Z</time>
      </trkpt>
      <trkpt lat="50.00388" lon="1.92472">
        <ele>57.2</ele>
        <time>2013-07-28T08:50:52Z</time>
      </trkpt>
      <trkpt lat="50.00391" lon="1.92494">
        <ele>60.3</ele>
        <time>2013-07-28T08:51:02Z</time>
      </trkpt>
      <trkpt lat="50.00397" lon="1.92514">
        <ele>63.1</ele>
        <time>2013-07-28T08:51:12Z</time>
      </trkpt>
      <trkpt lat="50.00403" lon="1.92535">
        <ele>64.5</ele>
        <time>2013-07-28T08:51:23Z</time>
      </trkpt>
      <trkpt lat="50.00406" lon="1.92555">
        <ele>68</ele>
        <time>2013-07-28T08:51:35Z</time>
      </trkpt>
      <trkpt lat="50.00412" lon="1.92574">
        <ele>68</ele>
        <time>2013-07-28T08:51:45Z</time>
      </trkpt>
      <trkpt lat="50.00414" lon="1.92596">
        <ele>68</ele>
        <time>2013-07-28T08:51:58Z</time>
      </trkpt>
      <trkpt lat="50.0042" lon="1.92615">
        <ele>68.2</ele>
        <time>2013-07-28T08:52:08Z</time>
      </trkpt>
      <trkpt lat="50.00419" lon="1.92637">
        <ele>69</ele>
        <time>2013-07-28T08:52:22Z</time>
      </trkpt>
      <trkpt lat="50.00422" lon="1.92658">
        <ele>69.5</ele>
        <time>2013-07-28T08:52:30Z</time>
      </trkpt>
      <trkpt lat="50.00428" lon="1.92678">
        <ele>70</ele>
        <time>2013-07-28T08:52:39Z</time>
      </trkpt>
      <trkpt lat="50.00433" lon="1.92698">
        <ele>70.6</ele>
        <time>2013-07-28T08:52:50Z</time>
      </trkpt>
      <trkpt lat="50.00434" lon="1.92721">
        <ele>71.7</ele>
        <time>2013-07-28T08:53:00Z</time>
      </trkpt>
      <trkpt lat="50.00436" lon="1.92745">
        <ele>73.8</ele>
        <time>2013-07-28T08:53:12Z</time>
      </trkpt>
      <trkpt lat="50.0044" lon="1.92766">
        <ele>74.2</ele>
        <time>2013-07-28T08:53:24Z</time>
      </trkpt>
      <trkpt lat="50.00444" lon="1.92787">
        <ele>77</ele>
        <time>2013-07-28T08:53:33Z</time>
      </trkpt>
      <trkpt lat="50.00449" lon="1.92809">
        <ele>75.6</ele>
        <time>2013-07-28T08:53:43Z</time>
      </trkpt>
      <trkpt lat="50.00452" lon="1.9283">
        <ele>76.7</ele>
        <time>2013-07-28T08:53:53Z</time>
      </trkpt>
      <trkpt lat="50.00455" lon="1.92851">
        <ele>77.8</ele>
        <time>2013-07-28T08:54:03Z</time>
      </trkpt>
      <trkpt lat="50.00457" lon="1.92873">
        <ele>76.6</ele>
        <time>2013-07-28T08:54:13Z</time>
      </trkpt>
      <trkpt lat="50.00461" lon="1.92893">
        <ele>75.2</ele>
        <time>2013-07-28T08:54:24Z</time>
      </trkpt>
      <trkpt lat="50.00464" lon="1.92915">
        <ele>76.2</ele>
        <time>2013-07-28T08:54:34Z</time>
      </trkpt>
      <trkpt lat="50.00465" lon="1.92939">
        <ele>77.3</ele>
        <time>2013-07-28T08:54:47Z</time>
      </trkpt>
      <trkpt lat="50.00468" lon="1.9296">
        <ele>77.9</ele>
        <time>2013-07-28T08:54:58Z</time>
      </trkpt>
      <trkpt lat="50.00475" lon="1.9298">
        <ele>77.5</ele>
        <time>2013-07-28T08:55:08Z</time>
      </trkpt>
      <trkpt lat="50.00475" lon="1.93001">
        <ele>77.2</ele>
        <time>2013-07-28T08:55:19Z</time>
      </trkpt>
      <trkpt lat="50.00478" lon="1.93022">
        <ele>76.9</ele>
        <time>2013-07-28T08:55:29Z</time>
      </trkpt>
      <trkpt lat="50.00479" lon="1.93044">
        <ele>76.5</ele>
        <time>2013-07-28T08:55:40Z</time>
      </trkpt>
      <trkpt lat="50.00476" lon="1.93066">
        <ele>76.2</ele>
        <time>2013-07-28T08:55:50Z</time>
      </trkpt>
      <trkpt lat="50.00481" lon="1.93087">
        <ele>75.8</ele>
        <time>2013-07-28T08:56:01Z</time>
      </trkpt>
      <trkpt lat="50.00483" lon="1.93108">
        <ele>75.4</ele>
        <time>2013-07-28T08:56:13Z</time>
      </trkpt>
      <trkpt lat="50.00485" lon="1.93131">
        <ele>75.1</ele>
        <time>2013-07-28T08:56:23Z</time>
      </trkpt>
      <trkpt lat="50.00481" lon="1.93153">
        <ele>78</ele>
        <time>2013-07-28T08:56:32Z</time>
      </trkpt>
      <trkpt lat="50.00483" lon="1.93175">
        <ele>80.7</ele>
        <time>2013-07-28T08:56:42Z</time>
      </trkpt>
      <trkpt lat="50.00483" lon="1.93197">
        <ele>79.9</ele>
        <time>2013-07-28T08:56:57Z</time>
      </trkpt>
      <trkpt lat="50.00482" lon="1.93219">
        <ele>79.3</ele>
        <time>2013-07-28T08:57:07Z</time>
      </trkpt>
      <trkpt lat="50.0048" lon="1.93241">
        <ele>78.7</ele>
        <time>2013-07-28T08:57:18Z</time>
      </trkpt>
      <trkpt lat="50.0048" lon="1.93264">
        <ele>78.2</ele>
        <time>2013-07-28T08:57:27Z</time>
      </trkpt>
      <trkpt lat="50.0048" lon="1.93285">
        <ele>77.7</ele>
        <time>2013-07-28T08:57:36Z</time>
      </trkpt>
      <trkpt lat="50.0048" lon="1.93307">
        <ele>77</ele>
        <time>2013-07-28T08:57:49Z</time>
      </trkpt>
      <trkpt lat="50.00476" lon="1.93327">
        <ele>77.3</ele>
        <time>2013-07-28T08:57:59Z</time>
      </trkpt>
      <trkpt lat="50.00472" lon="1.93349">
        <ele>77.6</ele>
        <time>2013-07-28T08:58:09Z</time>
      </trkpt>
      <trkpt lat="50.00474" lon="1.93371">
        <ele>77.9</ele>
        <time>2013-07-28T08:58:20Z</time>
      </trkpt>
      <trkpt lat="50.00477" lon="1.93392">
        <ele>78.2</ele>
        <time>2013-07-28T08:58:30Z</time>
      </trkpt>
      <trkpt lat="50.00475" lon="1.93413">
        <ele>78.5</ele>
        <time>2013-07-28T08:58:41Z</time>
      </trkpt>
      <trkpt lat="50.00482" lon="1.9343">
        <ele>78.9</ele>
        <time>2013-07-28T08:58:54Z</time>
      </trkpt>
      <trkpt lat="50.00497" lon="1.93427">
        <ele>79.3</ele>
        <time>2013-07-28T08:59:08Z</time>
      </trkpt>
      <trkpt lat="50.00511" lon="1.93421">
        <ele>79.7</ele>
        <time>2013-07-28T08:59:19Z</time>
      </trkpt>
      <trkpt lat="50.00523" lon="1.9341">
        <ele>79.9</ele>
        <time>2013-07-28T08:59:28Z</time>
      </trkpt>
      <trkpt lat="50.00538" lon="1.93408">
        <ele>76.8</ele>
        <time>2013-07-28T08:59:38Z</time>
      </trkpt>
      <trkpt lat="50.00551" lon="1.93404">
        <ele>72</ele>
        <time>2013-07-28T08:59:47Z</time>
      </trkpt>
      <trkpt lat="50.00565" lon="1.93397">
        <ele>73</ele>
        <time>2013-07-28T08:59:56Z</time>
      </trkpt>
      <trkpt lat="50.00578" lon="1.93393">
        <ele>74.2</ele>
        <time>2013-07-28T09:00:08Z</time>
      </trkpt>
      <trkpt lat="50.00592" lon="1.93389">
        <ele>75.9</ele>
        <time>2013-07-28T09:00:19Z</time>
      </trkpt>
      <trkpt lat="50.00605" lon="1.93382">
        <ele>78.2</ele>
        <time>2013-07-28T09:00:29Z</time>
      </trkpt>
      <trkpt lat="50.00621" lon="1.93377">
        <ele>79.6</ele>
        <time>2013-07-28T09:00:35Z</time>
      </trkpt>
      <trkpt lat="50.00637" lon="1.93378">
        <ele>79.6</ele>
        <time>2013-07-28T09:00:44Z</time>
      </trkpt>
      <trkpt lat="50.0065" lon="1.93368">
        <ele>78.8</ele>
        <time>2013-07-28T09:00:59Z</time>
      </trkpt>
      <trkpt lat="50.00664" lon="1.93362">
        <ele>78.2</ele>
        <time>2013-07-28T09:01:11Z</time>
      </trkpt>
      <trkpt lat="50.00677" lon="1.9336">
        <ele>77.8</ele>
        <time>2013-07-28T09:01:19Z</time>
      </trkpt>
      <trkpt lat="50.00691" lon="1.93355">
        <ele>77</ele>
        <time>2013-07-28T09:01:34Z</time>
      </trkpt>
      <trkpt lat="50.00705" lon="1.93351">
        <ele>74</ele>
        <time>2013-07-28T09:01:45Z</time>
      </trkpt>
      <trkpt lat="50.00719" lon="1.93351">
        <ele>76</ele>
        <time>2013-07-28T09:01:56Z</time>
      </trkpt>
      <trkpt lat="50.00733" lon="1.93347">
        <ele>77.5</ele>
        <time>2013-07-28T09:02:04Z</time>
      </trkpt>
      <trkpt lat="50.00746" lon="1.93341">
        <ele>76.7</ele>
        <time>2013-07-28T09:02:14Z</time>
      </trkpt>
      <trkpt lat="50.0076" lon="1.93337">
        <ele>74.4</ele>
        <time>2013-07-28T09:02:27Z</time>
      </trkpt>
      <trkpt lat="50.00773" lon="1.93329">
        <ele>70.9</ele>
        <time>2013-07-28T09:02:39Z</time>
      </trkpt>
      <trkpt lat="50.00787" lon="1.93323">
        <ele>69</ele>
        <time>2013-07-28T09:02:48Z</time>
      </trkpt>
      <trkpt lat="50.00801" lon="1.93321">
        <ele>69</ele>
        <time>2013-07-28T09:02:57Z</time>
      </trkpt>
      <trkpt lat="50.00815" lon="1.93315">
        <ele>69</ele>
        <time>2013-07-28T09:03:08Z</time>
      </trkpt>
      <trkpt lat="50.00829" lon="1.93315">
        <ele>69</ele>
        <time>2013-07-28T09:03:22Z</time>
      </trkpt>
      <trkpt lat="50.00843" lon="1.93309">
        <ele>66</ele>
        <time>2013-07-28T09:03:34Z</time>
      </trkpt>
      <trkpt lat="50.00858" lon="1.93308">
        <ele>68.7</ele>
        <time>2013-07-28T09:03:43Z</time>
      </trkpt>
      <trkpt lat="50.00873" lon="1.93308">
        <ele>69.9</ele>
        <time>2013-07-28T09:03:51Z</time>
      </trkpt>
      <trkpt lat="50.00887" lon="1.93306">
        <ele>69.3</ele>
        <time>2013-07-28T09:04:04Z</time>
      </trkpt>
      <trkpt lat="50.00896" lon="1.93319">
        <ele>71.2</ele>
        <time>2013-07-28T09:04:13Z</time>
      </trkpt>
      <trkpt lat="50.00911" lon="1.93314">
        <ele>73.7</ele>
        <time>2013-07-28T09:04:19Z</time>
      </trkpt>
      <trkpt lat="50.00925" lon="1.93311">
        <ele>75.8</ele>
        <time>2013-07-28T09:04:28Z</time>
      </trkpt>
      <trkpt lat="50.0094" lon="1.93313">
        <ele>75.3</ele>
        <time>2013-07-28T09:04:40Z</time>
      </trkpt>
      <trkpt lat="50.00954" lon="1.93314">
        <ele>76.1</ele>
        <time>2013-07-28T09:04:51Z</time>
      </trkpt>
      <trkpt lat="50.00968" lon="1.93319">
        <ele>76.6</ele>
        <time>2013-07-28T09:05:02Z</time>
      </trkpt>
      <trkpt lat="50.00982" lon="1.93323">
        <ele>77</ele>
        <time>2013-07-28T09:05:12Z</time>
      </trkpt>
      <trkpt lat="50.00996" lon="1.93328">
        <ele>77.3</ele>
        <time>2013-07-28T09:05:24Z</time>
      </trkpt>
      <trkpt lat="50.0101" lon="1.93331">
        <ele>77.9</ele>
        <time>2013-07-28T09:05:35Z</time>
      </trkpt>
      <trkpt lat="50.01024" lon="1.9334">
        <ele>78.5</ele>
        <time>2013-07-28T09:05:45Z</time>
      </trkpt>
      <trkpt lat="50.01038" lon="1.93347">
        <ele>79.1</ele>
        <time>2013-07-28T09:05:57Z</time>
      </trkpt>
      <trkpt lat="50.01051" lon="1.93348">
        <ele>79.7</ele>
        <time>2013-07-28T09:06:07Z</time>
      </trkpt>
      <trkpt lat="50.01065" lon="1.93348">
        <ele>79.6</ele>
        <time>2013-07-28T09:06:16Z</time>
      </trkpt>
      <trkpt lat="50.01079" lon="1.93352">
        <ele>78.5</ele>
        <time>2013-07-28T09:06:27Z</time>
      </trkpt>
      <trkpt lat="50.01093" lon="1.93354">
        <ele>77.3</ele>
        <time>2013-07-28T09:06:38Z</time>
      </trkpt>
      <trkpt lat="50.01107" lon="1.93358">
        <ele>76.2</ele>
        <time>2013-07-28T09:06:49Z</time>
      </trkpt>
      <trkpt lat="50.01121" lon="1.9336">
        <ele>78.3</ele>
        <time>2013-07-28T09:07:00Z</time>
      </trkpt>
      <trkpt lat="50.01136" lon="1.93362">
        <ele>80.9</ele>
        <time>2013-07-28T09:07:10Z</time>
      </trkpt>
      <trkpt lat="50.01151" lon="1.93367">
        <ele>79</ele>
        <time>2013-07-28T09:07:24Z</time>
      </trkpt>
      <trkpt lat="50.01165" lon="1.93374">
        <ele>79.6</ele>
        <time>2013-07-28T09:07:32Z</time>
      </trkpt>
      <trkpt lat="50.01179" lon="1.93381">
        <ele>80.6</ele>
        <time>2013-07-28T09:07:45Z</time>
      </trkpt>
      <trkpt lat="50.01192" lon="1.93383">
        <ele>81.2</ele>
        <time>2013-07-28T09:07:53Z</time>
      </trkpt>
      <trkpt lat="50.01207" lon="1.93388">
        <ele>82</ele>
        <time>2013-07-28T09:08:04Z</time>
      </trkpt>
      <trkpt lat="50.0122" lon="1.93392">
        <ele>82.8</ele>
        <time>2013-07-28T09:08:15Z</time>
      </trkpt>
      <trkpt lat="50.01234" lon="1.93398">
        <ele>83.6</ele>
        <time>2013-07-28T09:08:26Z</time>
      </trkpt>
      <trkpt lat="50.01247" lon="1.93406">
        <ele>83.1</ele>
        <time>2013-07-28T09:08:36Z</time>
      </trkpt>
      <trkpt lat="50.01261" lon="1.9341">
        <ele>81</ele>
        <time>2013-07-28T09:08:48Z</time>
      </trkpt>
      <trkpt lat="50.01275" lon="1.93417">
        <ele>77.9</ele>
        <time>2013-07-28T09:08:58Z</time>
      </trkpt>
      <trkpt lat="50.01289" lon="1.93421">
        <ele>77.6</ele>
        <time>2013-07-28T09:09:08Z</time>
      </trkpt>
      <trkpt lat="50.01303" lon="1.93426">
        <ele>79.4</ele>
        <time>2013-07-28T09:09:20Z</time>
      </trkpt>
      <trkpt lat="50.01315" lon="1.93435">
        <ele>78.2</ele>
        <time>2013-07-28T09:09:32Z</time>
      </trkpt>
      <trkpt lat="50.01329" lon="1.93443">
        <ele>77.2</ele>
        <time>2013-07-28T09:09:42Z</time>
      </trkpt>
      <trkpt lat="50.01342" lon="1.93445">
        <ele>76.1</ele>
        <time>2013-07-28T09:09:53Z</time>
      </trkpt>
      <trkpt lat="50.01353" lon="1.93457">
        <ele>75.2</ele>
        <time>2013-07-28T09:10:06Z</time>
      </trkpt>
      <trkpt lat="50.01366" lon="1.93466">
        <ele>76.2</ele>
        <time>2013-07-28T09:10:15Z</time>
      </trkpt>
      <trkpt lat="50.01379" lon="1.93474">
        <ele>77.3</ele>
        <time>2013-07-28T09:10:25Z</time>
      </trkpt>
      <trkpt lat="50.01393" lon="1.93478">
        <ele>77.8</ele>
        <time>2013-07-28T09:10:35Z</time>
      </trkpt>
      <trkpt lat="50.01405" lon="1.93488">
        <ele>77.3</ele>
        <time>2013-07-28T09:10:45Z</time>
      </trkpt>
      <trkpt lat="50.01418" lon="1.93495">
        <ele>76.8</ele>
        <time>2013-07-28T09:10:55Z</time>
      </trkpt>
      <trkpt lat="50.0143" lon="1.93504">
        <ele>76.3</ele>
        <time>2013-07-28T09:11:06Z</time>
      </trkpt>
      <trkpt lat="50.01444" lon="1.9351">
        <ele>75.8</ele>
        <time>2013-07-28T09:11:16Z</time>
      </trkpt>
      <trkpt lat="50.01457" lon="1.9352">
        <ele>75.1</ele>
        <time>2013-07-28T09:11:30Z</time>
      </trkpt>
      <trkpt lat="50.01471" lon="1.93527">
        <ele>78.2</ele>
        <time>2013-07-28T09:11:40Z</time>
      </trkpt>
      <trkpt lat="50.01484" lon="1.93532">
        <ele>78.8</ele>
        <time>2013-07-28T09:11:50Z</time>
      </trkpt>
      <trkpt lat="50.01498" lon="1.93537">
        <ele>79.4</ele>
        <time>2013-07-28T09:12:00Z</time>
      </trkpt>
      <trkpt lat="50.01512" lon="1.93539">
        <ele>79.9</ele>
        <time>2013-07-28T09:12:09Z</time>
      </trkpt>
      <trkpt lat="50.01525" lon="1.93543">
        <ele>80.6</ele>
        <time>2013-07-28T09:12:20Z</time>
      </trkpt>
      <trkpt lat="50.01539" lon="1.93547">
        <ele>81.5</ele>
        <time>2013-07-28T09:12:31Z</time>
      </trkpt>
      <trkpt lat="50.01553" lon="1.93548">
        <ele>82.9</ele>
        <time>2013-07-28T09:12:42Z</time>
      </trkpt>
      <trkpt lat="50.01567" lon="1.9355">
        <ele>84.4</ele>
        <time>2013-07-28T09:12:53Z</time>
      </trkpt>
      <trkpt lat="50.01581" lon="1.93553">
        <ele>85.8</ele>
        <time>2013-07-28T09:13:04Z</time>
      </trkpt>
      <trkpt lat="50.01596" lon="1.93557">
        <ele>86</ele>
        <time>2013-07-28T09:13:17Z</time>
      </trkpt>
      <trkpt lat="50.0161" lon="1.9356">
        <ele>86.2</ele>
        <time>2013-07-28T09:13:26Z</time>
      </trkpt>
      <trkpt lat="50.01623" lon="1.93571">
        <ele>83.6</ele>
        <time>2013-07-28T09:13:36Z</time>
      </trkpt>
      <trkpt lat="50.01635" lon="1.93581">
        <ele>81.9</ele>
        <time>2013-07-28T09:13:46Z</time>
      </trkpt>
      <trkpt lat="50.01645" lon="1.93595">
        <ele>80.4</ele>
        <time>2013-07-28T09:13:55Z</time>
      </trkpt>
      <trkpt lat="50.01659" lon="1.93596">
        <ele>78.4</ele>
        <time>2013-07-28T09:14:06Z</time>
      </trkpt>
      <trkpt lat="50.01672" lon="1.93598">
        <ele>78</ele>
        <time>2013-07-28T09:14:19Z</time>
      </trkpt>
      <trkpt lat="50.01686" lon="1.93607">
        <ele>78</ele>
        <time>2013-07-28T09:14:29Z</time>
      </trkpt>
      <trkpt lat="50.017" lon="1.93611">
        <ele>75.2</ele>
        <time>2013-07-28T09:14:46Z</time>
      </trkpt>
      <trkpt lat="50.01713" lon="1.93617">
        <ele>75.7</ele>
        <time>2013-07-28T09:14:57Z</time>
      </trkpt>
      <trkpt lat="50.01727" lon="1.93625">
        <ele>76.2</ele>
        <time>2013-07-28T09:15:08Z</time>
      </trkpt>
      <trkpt lat="50.01741" lon="1.93631">
        <ele>76.7</ele>
        <time>2013-07-28T09:15:19Z</time>
      </trkpt>
      <trkpt lat="50.01755" lon="1.93637">
        <ele>77.3</ele>
        <time>2013-07-28T09:15:32Z</time>
      </trkpt>
      <trkpt lat="50.01768" lon="1.93646">
        <ele>77.8</ele>
        <time>2013-07-28T09:15:43Z</time>
      </trkpt>
      <trkpt lat="50.01781" lon="1.93656">
        <ele>78.3</ele>
        <time>2013-07-28T09:15:55Z</time>
      </trkpt>
      <trkpt lat="50.01794" lon="1.93663">
        <ele>78.8</ele>
        <time>2013-07-28T09:16:06Z</time>
      </trkpt>
      <trkpt lat="50.01807" lon="1.93667">
        <ele>79.6</ele>
        <time>2013-07-28T09:16:14Z</time>
      </trkpt>
      <trkpt lat="50.01822" lon="1.93672">
        <ele>80.9</ele>
        <time>2013-07-28T09:16:23Z</time>
      </trkpt>
      <trkpt lat="50.01836" lon="1.93677">
        <ele>81.9</ele>
        <time>2013-07-28T09:16:30Z</time>
      </trkpt>
      <trkpt lat="50.0185" lon="1.93685">
        <ele>82.7</ele>
        <time>2013-07-28T09:16:44Z</time>
      </trkpt>
      <trkpt lat="50.01864" lon="1.93685">
        <ele>82.1</ele>
        <time>2013-07-28T09:16:56Z</time>
      </trkpt>
      <trkpt lat="50.01876" lon="1.93697">
        <ele>78.5</ele>
        <time>2013-07-28T09:17:11Z</time>
      </trkpt>
      <trkpt lat="50.01891" lon="1.93702">
        <ele>77.8</ele>
        <time>2013-07-28T09:17:19Z</time>
      </trkpt>
      <trkpt lat="50.01905" lon="1.93709">
        <ele>77.4</ele>
        <time>2013-07-28T09:17:28Z</time>
      </trkpt>
      <trkpt lat="50.0192" lon="1.93712">
        <ele>77</ele>
        <time>2013-07-28T09:17:38Z</time>
      </trkpt>
      <trkpt lat="50.01933" lon="1.93721">
        <ele>76.6</ele>
        <time>2013-07-28T09:17:50Z</time>
      </trkpt>
      <trkpt lat="50.01947" lon="1.93728">
        <ele>76.2</ele>
        <time>2013-07-28T09:18:01Z</time>
      </trkpt>
      <trkpt lat="50.0196" lon="1.93734">
        <ele>75.7</ele>
        <time>2013-07-28T09:18:12Z</time>
      </trkpt>
      <trkpt lat="50.01973" lon="1.93747">
        <ele>75.2</ele>
        <time>2013-07-28T09:18:25Z</time>
      </trkpt>
      <trkpt lat="50.01986" lon="1.93756">
        <ele>76.4</ele>
        <time>2013-07-28T09:18:35Z</time>
      </trkpt>
      <trkpt lat="50.01998" lon="1.93768">
        <ele>78.9</ele>
        <time>2013-07-28T09:18:45Z</time>
      </trkpt>
      <trkpt lat="50.0201" lon="1.93779">
        <ele>78.5</ele>
        <time>2013-07-28T09:18:56Z</time>
      </trkpt>
      <trkpt lat="50.0202" lon="1.93794">
        <ele>78.2</ele>
        <time>2013-07-28T09:19:07Z</time>
      </trkpt>
      <trkpt lat="50.02034" lon="1.93803">
        <ele>77.8</ele>
        <time>2013-07-28T09:19:19Z</time>
      </trkpt>
      <trkpt lat="50.02046" lon="1.93815">
        <ele>77.2</ele>
        <time>2013-07-28T09:19:35Z</time>
      </trkpt>
      <trkpt lat="50.02059" lon="1.93826">
        <ele>76.9</ele>
        <time>2013-07-28T09:19:46Z</time>
      </trkpt>
      <trkpt lat="50.0207" lon="1.93837">
        <ele>76.5</ele>
        <time>2013-07-28T09:19:56Z</time>
      </trkpt>
      <trkpt lat="50.02083" lon="1.93845">
        <ele>76.1</ele>
        <time>2013-07-28T09:20:09Z</time>
      </trkpt>
      <trkpt lat="50.02097" lon="1.93841">
        <ele>77.4</ele>
        <time>2013-07-28T09:20:20Z</time>
      </trkpt>
      <trkpt lat="50.0211" lon="1.93833">
        <ele>79</ele>
        <time>2013-07-28T09:20:29Z</time>
      </trkpt>
      <trkpt lat="50.02123" lon="1.93825">
        <ele>74.4</ele>
        <time>2013-07-28T09:20:39Z</time>
      </trkpt>
      <trkpt lat="50.02137" lon="1.93822">
        <ele>73.1</ele>
        <time>2013-07-28T09:20:49Z</time>
      </trkpt>
      <trkpt lat="50.02151" lon="1.93815">
        <ele>70</ele>
        <time>2013-07-28T09:21:01Z</time>
      </trkpt>
      <trkpt lat="50.02165" lon="1.93812">
        <ele>70</ele>
        <time>2013-07-28T09:21:11Z</time>
      </trkpt>
      <trkpt lat="50.02178" lon="1.93807">
        <ele>67.3</ele>
        <time>2013-07-28T09:21:22Z</time>
      </trkpt>
      <trkpt lat="50.02193" lon="1.93803">
        <ele>68.4</ele>
        <time>2013-07-28T09:21:34Z</time>
      </trkpt>
      <trkpt lat="50.02207" lon="1.93804">
        <ele>68.9</ele>
        <time>2013-07-28T09:21:42Z</time>
      </trkpt>
      <trkpt lat="50.02221" lon="1.93809">
        <ele>67.7</ele>
        <time>2013-07-28T09:21:53Z</time>
      </trkpt>
      <trkpt lat="50.02235" lon="1.93818">
        <ele>66.7</ele>
        <time>2013-07-28T09:22:02Z</time>
      </trkpt>
      <trkpt lat="50.02246" lon="1.93829">
        <ele>65.8</ele>
        <time>2013-07-28T09:22:11Z</time>
      </trkpt>
      <trkpt lat="50.0226" lon="1.93833">
        <ele>69.1</ele>
        <time>2013-07-28T09:22:22Z</time>
      </trkpt>
      <trkpt lat="50.02275" lon="1.93838">
        <ele>71.8</ele>
        <time>2013-07-28T09:22:30Z</time>
      </trkpt>
      <trkpt lat="50.02285" lon="1.93852">
        <ele>73.7</ele>
        <time>2013-07-28T09:22:44Z</time>
      </trkpt>
      <trkpt lat="50.02299" lon="1.93858">
        <ele>71.2</ele>
        <time>2013-07-28T09:23:00Z</time>
      </trkpt>
      <trkpt lat="50.02304" lon="1.93856">
        <ele>69.8</ele>
        <time>2013-07-28T09:23:07Z</time>
      </trkpt>
      <trkpt lat="50.02308" lon="1.93877">
        <ele>68</ele>
        <time>2013-07-28T09:23:16Z</time>
      </trkpt>
      <trkpt lat="50.02322" lon="1.93879">
        <ele>67.5</ele>
        <time>2013-07-28T09:23:28Z</time>
      </trkpt>
      <trkpt lat="50.02335" lon="1.93877">
        <ele>70.5</ele>
        <time>2013-07-28T09:23:38Z</time>
      </trkpt>
      <trkpt lat="50.02341" lon="1.93896">
        <ele>68.4</ele>
        <time>2013-07-28T09:24:01Z</time>
      </trkpt>
      <trkpt lat="50.02354" lon="1.93904">
        <ele>67.5</ele>
        <time>2013-07-28T09:24:10Z</time>
      </trkpt>
      <trkpt lat="50.02365" lon="1.93919">
        <ele>66.7</ele>
        <time>2013-07-28T09:24:19Z</time>
      </trkpt>
      <trkpt lat="50.02374" lon="1.93937">
        <ele>65.8</ele>
        <time>2013-07-28T09:24:32Z</time>
      </trkpt>
      <trkpt lat="50.02384" lon="1.93951">
        <ele>65.3</ele>
        <time>2013-07-28T09:24:42Z</time>
      </trkpt>
      <trkpt lat="50.02393" lon="1.93968">
        <ele>64.8</ele>
        <time>2013-07-28T09:24:52Z</time>
      </trkpt>
      <trkpt lat="50.02399" lon="1.93988">
        <ele>64.3</ele>
        <time>2013-07-28T09:25:03Z</time>
      </trkpt>
      <trkpt lat="50.02408" lon="1.94003">
        <ele>63.5</ele>
        <time>2013-07-28T09:25:22Z</time>
      </trkpt>
      <trkpt lat="50.02416" lon="1.94022">
        <ele>63</ele>
        <time>2013-07-28T09:25:32Z</time>
      </trkpt>
      <trkpt lat="50.02426" lon="1.94036">
        <ele>61.8</ele>
        <time>2013-07-28T09:25:41Z</time>
      </trkpt>
      <trkpt lat="50.02428" lon="1.94057">
        <ele>60.7</ele>
        <time>2013-07-28T09:25:49Z</time>
      </trkpt>
      <trkpt lat="50.02436" lon="1.94066">
        <ele>61.6</ele>
        <time>2013-07-28T09:25:56Z</time>
      </trkpt>
      <trkpt lat="50.0245" lon="1.94071">
        <ele>59</ele>
        <time>2013-07-28T09:26:21Z</time>
      </trkpt>
      <trkpt lat="50.02463" lon="1.94077">
        <ele>54.9</ele>
        <time>2013-07-28T09:26:31Z</time>
      </trkpt>
      <trkpt lat="50.02479" lon="1.94072">
        <ele>55.8</ele>
        <time>2013-07-28T09:26:43Z</time>
      </trkpt>
      <trkpt lat="50.02493" lon="1.94072">
        <ele>55</ele>
        <time>2013-07-28T09:26:53Z</time>
      </trkpt>
      <trkpt lat="50.02507" lon="1.94076">
        <ele>52.4</ele>
        <time>2013-07-28T09:27:11Z</time>
      </trkpt>
      <trkpt lat="50.02521" lon="1.94081">
        <ele>49.8</ele>
        <time>2013-07-28T09:27:25Z</time>
      </trkpt>
      <trkpt lat="50.02535" lon="1.94086">
        <ele>47.4</ele>
        <time>2013-07-28T09:27:37Z</time>
      </trkpt>
      <trkpt lat="50.02549" lon="1.94091">
        <ele>43</ele>
        <time>2013-07-28T09:27:49Z</time>
      </trkpt>
      <trkpt lat="50.02564" lon="1.94094">
        <ele>40.2</ele>
        <time>2013-07-28T09:28:00Z</time>
      </trkpt>
      <trkpt lat="50.02578" lon="1.94096">
        <ele>37.7</ele>
        <time>2013-07-28T09:28:09Z</time>
      </trkpt>
      <trkpt lat="50.02593" lon="1.94094">
        <ele>35</ele>
        <time>2013-07-28T09:28:22Z</time>
      </trkpt>
      <trkpt lat="50.02607" lon="1.94093">
        <ele>35.7</ele>
        <time>2013-07-28T09:28:37Z</time>
      </trkpt>
      <trkpt lat="50.02621" lon="1.94092">
        <ele>36.4</ele>
        <time>2013-07-28T09:28:48Z</time>
      </trkpt>
      <trkpt lat="50.02635" lon="1.94089">
        <ele>37</ele>
        <time>2013-07-28T09:28:57Z</time>
      </trkpt>
      <trkpt lat="50.02649" lon="1.94091">
        <ele>35.3</ele>
        <time>2013-07-28T09:29:05Z</time>
      </trkpt>
      <trkpt lat="50.02663" lon="1.94092">
        <ele>32.9</ele>
        <time>2013-07-28T09:29:16Z</time>
      </trkpt>
      <trkpt lat="50.02677" lon="1.94095">
        <ele>30.8</ele>
        <time>2013-07-28T09:29:26Z</time>
      </trkpt>
      <trkpt lat="50.02692" lon="1.9409">
        <ele>28.4</ele>
        <time>2013-07-28T09:29:37Z</time>
      </trkpt>
      <trkpt lat="50.02705" lon="1.941">
        <ele>24</ele>
        <time>2013-07-28T09:29:48Z</time>
      </trkpt>
      <trkpt lat="50.02711" lon="1.94097">
        <ele>21.9</ele>
        <time>2013-07-28T09:30:05Z</time>
      </trkpt>
      <trkpt lat="50.02711" lon="1.94097">
        <ele>21.9</ele>
        <time>2013-07-28T09:30:58Z</time>
      </trkpt>
      <trkpt lat="50.02721" lon="1.94097">
        <ele>23.5</ele>
        <time>2013-07-28T09:31:02Z</time>
      </trkpt>
      <trkpt lat="50.02734" lon="1.94104">
        <ele>22.6</ele>
        <time>2013-07-28T09:31:17Z</time>
      </trkpt>
      <trkpt lat="50.02747" lon="1.9411">
        <ele>22.2</ele>
        <time>2013-07-28T09:31:25Z</time>
      </trkpt>
      <trkpt lat="50.02762" lon="1.94115">
        <ele>21.6</ele>
        <time>2013-07-28T09:31:35Z</time>
      </trkpt>
      <trkpt lat="50.02776" lon="1.94115">
        <ele>17.4</ele>
        <time>2013-07-28T09:31:52Z</time>
      </trkpt>
      <trkpt lat="50.02789" lon="1.94115">
        <ele>10</ele>
        <time>2013-07-28T09:32:06Z</time>
      </trkpt>
      <trkpt lat="50.02793" lon="1.94114">
        <ele>10</ele>
        <time>2013-07-28T09:32:14Z</time>
      </trkpt>
      <trkpt lat="50.02787" lon="1.94095">
        <ele>9.4</ele>
        <time>2013-07-28T09:32:24Z</time>
      </trkpt>
      <trkpt lat="50.02803" lon="1.94046">
        <ele>9.8</ele>
        <time>2013-07-28T09:32:48Z</time>
      </trkpt>
      <trkpt lat="50.02803" lon="1.94046">
        <ele>9.8</ele>
        <time>2013-07-28T09:33:51Z</time>
      </trkpt>
      <trkpt lat="50.02813" lon="1.94017">
        <ele>9.1</ele>
        <time>2013-07-28T09:33:58Z</time>
      </trkpt>
      <trkpt lat="50.02807" lon="1.93998">
        <ele>10.4</ele>
        <time>2013-07-28T09:34:12Z</time>
      </trkpt>
      <trkpt lat="50.028" lon="1.93978">
        <ele>13</ele>
        <time>2013-07-28T09:34:22Z</time>
      </trkpt>
      <trkpt lat="50.02806" lon="1.93958">
        <ele>13.7</ele>
        <time>2013-07-28T09:34:32Z</time>
      </trkpt>
      <trkpt lat="50.02813" lon="1.93939">
        <ele>14.7</ele>
        <time>2013-07-28T09:34:46Z</time>
      </trkpt>
      <trkpt lat="50.0282" lon="1.93921">
        <ele>14.1</ele>
        <time>2013-07-28T09:34:55Z</time>
      </trkpt>
      <trkpt lat="50.02829" lon="1.93903">
        <ele>15</ele>
        <time>2013-07-28T09:35:06Z</time>
      </trkpt>
      <trkpt lat="50.02843" lon="1.939">
        <ele>16.7</ele>
        <time>2013-07-28T09:35:15Z</time>
      </trkpt>
      <trkpt lat="50.02845" lon="1.93912">
        <ele>15.8</ele>
        <time>2013-07-28T09:35:25Z</time>
      </trkpt>
      <trkpt lat="50.02857" lon="1.93922">
        <ele>14.1</ele>
        <time>2013-07-28T09:35:44Z</time>
      </trkpt>
      <trkpt lat="50.0287" lon="1.9393">
        <ele>12.2</ele>
        <time>2013-07-28T09:35:55Z</time>
      </trkpt>
      <trkpt lat="50.02883" lon="1.93939">
        <ele>12.4</ele>
        <time>2013-07-28T09:36:09Z</time>
      </trkpt>
      <trkpt lat="50.02897" lon="1.93943">
        <ele>13.6</ele>
        <time>2013-07-28T09:36:20Z</time>
      </trkpt>
      <trkpt lat="50.02907" lon="1.93929">
        <ele>12.4</ele>
        <time>2013-07-28T09:36:29Z</time>
      </trkpt>
      <trkpt lat="50.02913" lon="1.93908">
        <ele>11</ele>
        <time>2013-07-28T09:36:39Z</time>
      </trkpt>
      <trkpt lat="50.02919" lon="1.93887">
        <ele>14.6</ele>
        <time>2013-07-28T09:36:53Z</time>
      </trkpt>
      <trkpt lat="50.02923" lon="1.93879">
        <ele>15.7</ele>
        <time>2013-07-28T09:36:59Z</time>
      </trkpt>
      <trkpt lat="50.02929" lon="1.93859">
        <ele>16.2</ele>
        <time>2013-07-28T09:37:19Z</time>
      </trkpt>
      <trkpt lat="50.02934" lon="1.93838">
        <ele>15.4</ele>
        <time>2013-07-28T09:37:31Z</time>
      </trkpt>
      <trkpt lat="50.02941" lon="1.93817">
        <ele>14.3</ele>
        <time>2013-07-28T09:37:48Z</time>
      </trkpt>
      <trkpt lat="50.02932" lon="1.93799">
        <ele>14</ele>
        <time>2013-07-28T09:37:59Z</time>
      </trkpt>
      <trkpt lat="50.0292" lon="1.93787">
        <ele>14</ele>
        <time>2013-07-28T09:38:09Z</time>
      </trkpt>
      <trkpt lat="50.02914" lon="1.93767">
        <ele>14</ele>
        <time>2013-07-28T09:38:29Z</time>
      </trkpt>
    </trkseg>
  </trk>
</gpx>